Observation data for Fort Lewis CO on 02/13/2018      Previous  Date  Next       Current Mesonet Observations  Soil Data  Daily Summary Page  Observations in Plain Language
KFL1 130600Z 33003KT 00/M01 A3007 RMK A01 T00011014  RH  090%=      5-min Rain = 0
KFL1 130601Z 33003KT 00/M01 A3007 RMK A01 T00011013  RH  091%=      5-min Rain = 0
KFL1 130602Z 32003KT 00/M01 A3007 RMK A01 T00011011  RH  091%=      5-min Rain = 0
KFL1 130603Z 32004KT 00/M01 A3007 RMK A01 T00011012  RH  091%=      5-min Rain = 0
KFL1 130604Z 32004KT 00/M01 A3007 RMK A01 T00011011  RH  092%=      5-min Rain = 0
KFL1 130605Z 31004KT 00/M01 A3007 RMK A01 T00011010  RH  092%=      5-min Rain = 0
KFL1 130606Z 31004KT 00/M01 A3007 RMK A01 T00011010  RH  092%=      5-min Rain = 0
KFL1 130607Z 30004KT 00/M01 A3007 RMK A01 T00011010  RH  092%=      5-min Rain = 0
KFL1 130608Z 31003KT 00/M01 A3007 RMK A01 T00011010  RH  093%=      5-min Rain = 0
KFL1 130609Z 31003KT 00/M01 A3007 RMK A01 T00011009  RH  093%=      5-min Rain = 0
KFL1 130610Z 30003KT 00/M01 A3007 RMK A01 T00011009  RH  093%=      5-min Rain = 0
KFL1 130611Z 28002KT 00/M01 A3008 RMK A01 T00011010  RH  092%=      5-min Rain = 0
KFL1 130612Z 29002KT 00/M01 A3008 RMK A01 T00021008  RH  092%=      5-min Rain = 0
KFL1 130613Z 28002KT 00/M01 A3008 RMK A01 T00031008  RH  092%=      5-min Rain = 0
KFL1 130614Z 29002KT 00/M01 A3008 RMK A01 T00021009  RH  092%=      5-min Rain = 0
KFL1 130615Z 30002KT 00/M01 A3008 RMK A01 T00021008  RH  093%=      5-min Rain = 0
KFL1 130616Z 30002KT 00/M01 A3008 RMK A01 T00031007  RH  093%=      5-min Rain = 0
KFL1 130617Z 30002KT 00/M01 A3008 RMK A01 T00031007  RH  093%=      5-min Rain = 0
KFL1 130618Z 31003KT 00/M01 A3008 RMK A01 T00021008  RH  093%=      5-min Rain = 0
KFL1 130619Z 31003KT 00/M01 A3008 RMK A01 T00021007  RH  094%=      5-min Rain = 0
KFL1 130620Z 32002KT 00/M01 A3008 RMK A01 T00021007  RH  094%=      5-min Rain = 0
KFL1 130621Z 32002KT 00/M01 A3008 RMK A01 T00031006  RH  094%=      5-min Rain = 0
KFL1 130622Z 31002KT 00/M01 A3008 RMK A01 T00031005  RH  094%=      5-min Rain = 0
KFL1 130623Z 32002KT 00/M01 A3008 RMK A01 T00021006  RH  094%=      5-min Rain = 0
KFL1 130624Z 32002KT 00/M01 A3008 RMK A01 T00021006  RH  094%=      5-min Rain = 0
KFL1 130625Z 31002KT 00/M01 A3008 RMK A01 T00021006  RH  095%=      5-min Rain = 0
KFL1 130626Z 31002KT 00/M01 A3008 RMK A01 T00021005  RH  095%=      5-min Rain = 0
KFL1 130627Z 31002KT 00/M01 A3008 RMK A01 T00011006  RH  095%=      5-min Rain = 0
KFL1 130628Z 31002KT 00/M00 A3008 RMK A01 T00021004  RH  095%=      5-min Rain = 0
KFL1 130629Z 30001KT 00/M00 A3008 RMK A01 T00021004  RH  096%=      5-min Rain = 0
KFL1 130630Z 29001KT 00/M00 A3008 RMK A01 T00021004  RH  096%=      5-min Rain = 0
KFL1 130631Z 29000KT 00/M01 A3008 RMK A01 T00011005  RH  096%=      5-min Rain = 0
KFL1 130632Z 00000KT 00/M00 A3008 RMK A01 T00021004  RH  096%=      5-min Rain = 0
KFL1 130633Z 00000KT 00/M00 A3008 RMK A01 T00041002  RH  096%=      5-min Rain = 0
KFL1 130634Z 00000KT 00/M00 A3008 RMK A01 T00021004  RH  096%=      5-min Rain = 0
KFL1 130635Z 00000KT 00/M00 A3008 RMK A01 T00021003  RH  096%=      5-min Rain = 0
KFL1 130636Z 00000KT 00/M00 A3008 RMK A01 T00031003  RH  096%=      5-min Rain = 0
KFL1 130637Z 00000KT 00/M00 A3008 RMK A01 T00031003  RH  096%=      5-min Rain = 0
KFL1 130638Z 00000KT 00/M00 A3008 RMK A01 T00021003  RH  096%=      5-min Rain = 0
KFL1 130639Z 00000KT 00/M00 A3008 RMK A01 T00021003  RH  096%=      5-min Rain = 0
KFL1 130640Z 00000KT 00/M01 A3008 RMK A01 T00011005  RH  096%=      5-min Rain = 0
KFL1 130641Z 11001KT 00/M00 A3008 RMK A01 T00021003  RH  096%=      5-min Rain = 0
KFL1 130642Z 09001KT 00/M00 A3008 RMK A01 T00011004  RH  097%=      5-min Rain = 0
KFL1 130643Z 07001KT 00/M00 A3008 RMK A01 T00021003  RH  097%=      5-min Rain = 0
KFL1 130644Z 08001KT 00/M00 A3009 RMK A01 T00011003  RH  097%=      5-min Rain = 0
KFL1 130645Z 06001KT 00/M00 A3009 RMK A01 T00021003  RH  097%=      5-min Rain = 0
KFL1 130646Z 05001KT 00/M00 A3009 RMK A01 T00011003  RH  097%=      5-min Rain = 0
KFL1 130647Z 02001KT 00/M00 A3009 RMK A01 T00011004  RH  097%=      5-min Rain = 0
KFL1 130648Z 36002KT 00/00 A3009 RMK A01 T000000-4  RH  097%=      5-min Rain = 0
KFL1 130649Z 36002KT M00/M01 A3009 RMK A01 T10011005  RH  097%=      5-min Rain = 0
KFL1 130650Z 36002KT 00/00 A3009 RMK A01 T000000-4  RH  097%=      5-min Rain = 0
KFL1 130651Z 00002KT 00/00 A3008 RMK A01 T00-000-4  RH  097%=      5-min Rain = 0
KFL1 130652Z 00002KT 00/00 A3008 RMK A01 T00-000-4  RH  097%=      5-min Rain = 0
KFL1 130653Z 00003KT 00/00 A3008 RMK A01 T000000-4  RH  097%=      5-min Rain = 0
KFL1 130654Z 36003KT 00/00 A3009 RMK A01 T000000-4  RH  097%=      5-min Rain = 0
KFL1 130655Z 36003KT M00/M01 A3009 RMK A01 T10021006  RH  097%=      5-min Rain = 0
KFL1 130656Z 00003KT M00/M01 A3009 RMK A01 T10041008  RH  097%=      5-min Rain = 0
KFL1 130657Z 36004KT M00/M01 A3009 RMK A01 T10021006  RH  097%=      5-min Rain = 0
KFL1 130658Z 00004KT M00/M01 A3009 RMK A01 T10031008  RH  097%=      5-min Rain = 0
KFL1 130659Z 01004KT M00/M01 A3009 RMK A01 T10031007  RH  097%=      5-min Rain = 0
KFL1 130700Z 01004KT M00/M01 A3009 RMK A01 T10031006  RH  097%=      5-min Rain = 0
KFL1 130701Z 01004KT M00/M01 A3009 RMK A01 T10041007  RH  098%=      5-min Rain = 0
KFL1 130702Z 00004KT M00/M01 A3009 RMK A01 T10021006  RH  098%=      5-min Rain = 0
KFL1 130703Z 00005KT M00/M01 A3009 RMK A01 T10031007  RH  098%=      5-min Rain = 0
KFL1 130704Z 00004KT M00/M01 A3009 RMK A01 T10031006  RH  098%=      5-min Rain = 0
KFL1 130705Z 00005KT M00/M01 A3009 RMK A01 T10041008  RH  097%=      5-min Rain = 0
KFL1 130706Z 00005KT M00/M01 A3009 RMK A01 T10041008  RH  097%=      5-min Rain = 0
KFL1 130707Z 00005KT M00/M01 A3008 RMK A01 T10041008  RH  097%=      5-min Rain = 0
KFL1 130708Z 00005KT M01/M01 A3008 RMK A01 T10061010  RH  097%=      5-min Rain = 0
KFL1 130709Z 00006KT M01/M01 A3008 RMK A01 T10071012  RH  097%=      5-min Rain = 0
KFL1 130710Z 00007KT M01/M01 A3008 RMK A01 T10071011  RH  097%=      5-min Rain = 0
KFL1 130711Z 36007KT M01/M01 A3008 RMK A01 T10091013  RH  097%=      5-min Rain = 0
KFL1 130712Z 35007KT M01/M02 A3008 RMK A01 T10101016  RH  096%=      5-min Rain = 0
KFL1 130713Z 35007KT M01/M02 A3008 RMK A01 T10121018  RH  096%=      5-min Rain = 0
KFL1 130714Z 35007KT M01/M02 A3008 RMK A01 T10131020  RH  096%=      5-min Rain = 0
KFL1 130715Z 35007KT M01/M02 A3008 RMK A01 T10141019  RH  096%=      5-min Rain = 0
KFL1 130716Z 35008KT M01/M02 A3008 RMK A01 T10141019  RH  097%=      5-min Rain = 0
KFL1 130717Z 35007KT M01/M02 A3008 RMK A01 T10131017  RH  097%=      5-min Rain = 0
KFL1 130718Z 35007KT M01/M02 A3008 RMK A01 T10121015  RH  098%=      5-min Rain = 0
KFL1 130719Z 35007KT M01/M01 A3008 RMK A01 T10111014  RH  098%=      5-min Rain = 0
KFL1 130720Z 35007KT M01/M01 A3008 RMK A01 T10091012  RH  098%=      5-min Rain = 0
KFL1 130721Z 35007KT M01/M01 A3008 RMK A01 T10091012  RH  098%=      5-min Rain = 0
KFL1 130722Z 35007KT M01/M01 A3008 RMK A01 T10091012  RH  098%=      5-min Rain = 0
KFL1 130723Z 35007KT M01/M01 A3008 RMK A01 T10091013  RH  097%=      5-min Rain = 0
KFL1 130724Z 35006KT M01/M01 A3008 RMK A01 T10091013  RH  097%=      5-min Rain = 0
KFL1 130725Z 35006KT M01/M01 A3008 RMK A01 T10091014  RH  097%=      5-min Rain = 0
KFL1 130726Z 35007KT M01/M01 A3008 RMK A01 T10091013  RH  097%=      5-min Rain = 0
KFL1 130727Z 35007KT M01/M01 A3008 RMK A01 T10091013  RH  097%=      5-min Rain = 0
KFL1 130728Z 35007KT M01/M01 A3008 RMK A01 T10081012  RH  097%=      5-min Rain = 0
KFL1 130729Z 35007KT M01/M01 A3008 RMK A01 T10081012  RH  097%=      5-min Rain = 0
KFL1 130730Z 35007KT M01/M01 A3008 RMK A01 T10071011  RH  097%=      5-min Rain = 0
KFL1 130731Z 35007KT M01/M01 A3008 RMK A01 T10071011  RH  097%=      5-min Rain = 0
KFL1 130732Z 35008KT M01/M01 A3008 RMK A01 T10051009  RH  097%=      5-min Rain = 0
KFL1 130733Z 35008KT M01/M01 A3008 RMK A01 T10051009  RH  097%=      5-min Rain = 0
KFL1 130734Z 35008KT M01/M01 A3008 RMK A01 T10051010  RH  097%=      5-min Rain = 0
KFL1 130735Z 34008KT M00/M01 A3008 RMK A01 T10031008  RH  096%=      5-min Rain = 0
KFL1 130736Z 34008KT M00/M01 A3008 RMK A01 T10031009  RH  096%=      5-min Rain = 0
KFL1 130737Z 34008KT M00/M01 A3008 RMK A01 T10031009  RH  096%=      5-min Rain = 0
KFL1 130738Z 34007KT M00/M01 A3008 RMK A01 T10011007  RH  095%=      5-min Rain = 0
KFL1 130739Z 34007KT M00/M01 A3008 RMK A01 T10011007  RH  095%=      5-min Rain = 0
KFL1 130740Z 34007KT 00/01 A3008 RMK A01 T00-000-8  RH  095%=      5-min Rain = 0
KFL1 130741Z 34007KT 00/01 A3008 RMK A01 T00-000-8  RH  094%=      5-min Rain = 0
KFL1 130742Z 34007KT 00/M01 A3008 RMK A01 T00011008  RH  094%=      5-min Rain = 0
KFL1 130743Z 34008KT 00/M01 A3008 RMK A01 T00011009  RH  093%=      5-min Rain = 0
KFL1 130744Z 34007KT 00/M01 A3008 RMK A01 T00011010  RH  092%=      5-min Rain = 0
KFL1 130745Z 34006KT 00/M01 A3008 RMK A01 T00021009  RH  092%=      5-min Rain = 0
KFL1 130746Z 34005KT 00/M01 A3009 RMK A01 T00021010  RH  092%=      5-min Rain = 0
KFL1 130747Z 34005KT 00/M01 A3009 RMK A01 T00021010  RH  092%=      5-min Rain = 0
KFL1 130748Z 34006KT 00/M01 A3009 RMK A01 T00021011  RH  091%=      5-min Rain = 0
KFL1 130749Z 34005KT 00/M01 A3009 RMK A01 T00021011  RH  091%=      5-min Rain = 0
KFL1 130750Z 33005KT 00/M01 A3009 RMK A01 T00031011  RH  091%=      5-min Rain = 0
KFL1 130751Z 33005KT 00/M01 A3009 RMK A01 T00031011  RH  091%=      5-min Rain = 0
KFL1 130752Z 32005KT 00/M01 A3009 RMK A01 T00031012  RH  090%=      5-min Rain = 0
KFL1 130753Z 32005KT 01/M01 A3009 RMK A01 T00051010  RH  090%=      5-min Rain = 0
KFL1 130754Z 33004KT 01/M01 A3009 RMK A01 T00051010  RH  090%=      5-min Rain = 0
KFL1 130755Z 34004KT 00/M01 A3009 RMK A01 T00041012  RH  089%=      5-min Rain = 0
KFL1 130756Z 33004KT 01/M01 A3009 RMK A01 T00051011  RH  089%=      5-min Rain = 0
KFL1 130757Z 33005KT 01/M01 A3009 RMK A01 T00051011  RH  089%=      5-min Rain = 0
KFL1 130758Z 33004KT 00/M01 A3009 RMK A01 T00041012  RH  089%=      5-min Rain = 0
KFL1 130759Z 33004KT 01/M01 A301 RMK A01 T00051011  RH  089%=      5-min Rain = 0
KFL1 130800Z 32004KT 01/M01 A301 RMK A01 T00051011  RH  089%=      5-min Rain = 0
KFL1 130801Z 32003KT 00/M01 A301 RMK A01 T00041011  RH  090%=      5-min Rain = 0
KFL1 130802Z 32004KT 00/M01 A301 RMK A01 T00041010  RH  090%=      5-min Rain = 0
KFL1 130803Z 33003KT 00/M01 A301 RMK A01 T00041010  RH  090%=      5-min Rain = 0
KFL1 130804Z 33003KT 00/M01 A301 RMK A01 T00031011  RH  090%=      5-min Rain = 0
KFL1 130805Z 33003KT 00/M01 A301 RMK A01 T00041011  RH  090%=      5-min Rain = 0
KFL1 130806Z 33003KT 01/M01 A301 RMK A01 T00051009  RH  090%=      5-min Rain = 0
KFL1 130807Z 34004KT 00/M01 A301 RMK A01 T00021013  RH  090%=      5-min Rain = 0
KFL1 130808Z 33004KT 00/M02 A301 RMK A01 T00021015  RH  089%=      5-min Rain = 0
KFL1 130809Z 34004KT 00/M01 A301 RMK A01 T00021014  RH  089%=      5-min Rain = 0
KFL1 130810Z 32003KT 00/M01 A301 RMK A01 T00031013  RH  089%=      5-min Rain = 0
KFL1 130811Z 32003KT 00/M01 A301 RMK A01 T00021014  RH  089%=      5-min Rain = 0
KFL1 130812Z 32003KT 00/M01 A301 RMK A01 T00031013  RH  089%=      5-min Rain = 0
KFL1 130813Z 32003KT 00/M02 A301 RMK A01 T00011016  RH  088%=      5-min Rain = 0
KFL1 130814Z 33003KT 00/M02 A301 RMK A01 T00011016  RH  088%=      5-min Rain = 0
KFL1 130815Z 33003KT 00/M02 A301 RMK A01 T00011017  RH  088%=      5-min Rain = 0
KFL1 130816Z 34003KT 00/02 A301 RMK A01 T00-00-18  RH  088%=      5-min Rain = 0
KFL1 130817Z 34003KT M00/M02 A301 RMK A01 T10021020  RH  088%=      5-min Rain = 0
KFL1 130818Z 34003KT M00/M02 A301 RMK A01 T10031020  RH  088%=      5-min Rain = 0
KFL1 130819Z 34003KT M00/M02 A301 RMK A01 T10041021  RH  088%=      5-min Rain = 0
KFL1 130820Z 33002KT M01/M02 A301 RMK A01 T10051020  RH  089%=      5-min Rain = 0
KFL1 130821Z 33002KT M01/M02 A301 RMK A01 T10051019  RH  090%=      5-min Rain = 0
KFL1 130822Z 33002KT M01/M02 A301 RMK A01 T10051019  RH  090%=      5-min Rain = 0
KFL1 130823Z 34002KT M01/M02 A301 RMK A01 T10061020  RH  090%=      5-min Rain = 0
KFL1 130824Z 34002KT M01/M02 A301 RMK A01 T10051019  RH  091%=      5-min Rain = 0
KFL1 130825Z 00001KT M01/M02 A301 RMK A01 T10071018  RH  092%=      5-min Rain = 0
KFL1 130826Z 02001KT M01/M02 A301 RMK A01 T10061016  RH  093%=      5-min Rain = 0
KFL1 130827Z 04002KT M01/M02 A301 RMK A01 T10061016  RH  093%=      5-min Rain = 0
KFL1 130828Z 04002KT M01/M02 A301 RMK A01 T10051017  RH  092%=      5-min Rain = 0
KFL1 130829Z 03002KT M00/M02 A301 RMK A01 T10041015  RH  092%=      5-min Rain = 0
KFL1 130830Z 04002KT M01/M02 A301 RMK A01 T10051016  RH  092%=      5-min Rain = 0
KFL1 130831Z 05002KT M01/M02 A301 RMK A01 T10051016  RH  093%=      5-min Rain = 0
KFL1 130832Z 05003KT M00/M02 A301 RMK A01 T10041015  RH  093%=      5-min Rain = 0
KFL1 130833Z 05003KT M00/M02 A301 RMK A01 T10041015  RH  093%=      5-min Rain = 0
KFL1 130834Z 05003KT M00/M01 A301 RMK A01 T10031014  RH  092%=      5-min Rain = 0
KFL1 130835Z 06003KT M00/M01 A301 RMK A01 T10031014  RH  092%=      5-min Rain = 0
KFL1 130836Z 07004KT M00/M02 A301 RMK A01 T10041015  RH  092%=      5-min Rain = 0
KFL1 130837Z 07004KT M00/M01 A301 RMK A01 T10031014  RH  092%=      5-min Rain = 0
KFL1 130838Z 07004KT M00/M01 A301 RMK A01 T10031014  RH  092%=      5-min Rain = 0
KFL1 130839Z 07004KT M00/M02 A301 RMK A01 T10041015  RH  092%=      5-min Rain = 0
KFL1 130840Z 06003KT M00/M01 A301 RMK A01 T10041014  RH  093%=      5-min Rain = 0
KFL1 130841Z 07004KT M01/M02 A301 RMK A01 T10051015  RH  093%=      5-min Rain = 0
KFL1 130842Z 06004KT M01/M02 A301 RMK A01 T10071016  RH  093%=      5-min Rain = 0
KFL1 130843Z 05003KT M01/M02 A301 RMK A01 T10061015  RH  094%=      5-min Rain = 0
KFL1 130844Z 04004KT M01/M01 A301 RMK A01 T10061014  RH  094%=      5-min Rain = 0
KFL1 130845Z 04004KT M01/M01 A301 RMK A01 T10061014  RH  094%=      5-min Rain = 0
KFL1 130846Z 05003KT M01/M02 A301 RMK A01 T10071015  RH  094%=      5-min Rain = 0
KFL1 130847Z 07002KT M01/M01 A301 RMK A01 T10061014  RH  094%=      5-min Rain = 0
KFL1 130848Z 06003KT M01/M01 A301 RMK A01 T10061014  RH  094%=      5-min Rain = 0
KFL1 130849Z 06003KT M01/M01 A301 RMK A01 T10061014  RH  094%=      5-min Rain = 0
KFL1 130850Z 07004KT M01/M01 A301 RMK A01 T10061014  RH  094%=      5-min Rain = 0
KFL1 130851Z 07004KT M01/M01 A301 RMK A01 T10071014  RH  095%=      5-min Rain = 0
KFL1 130852Z 07004KT M01/M01 A3011 RMK A01 T10071014  RH  095%=      5-min Rain = 0
KFL1 130853Z 07004KT M01/M01 A3011 RMK A01 T10071014  RH  095%=      5-min Rain = 0
KFL1 130854Z 07004KT M01/M02 A3011 RMK A01 T10081015  RH  095%=      5-min Rain = 0
KFL1 130855Z 07004KT M01/M01 A3011 RMK A01 T10071013  RH  096%=      5-min Rain = 0
KFL1 130856Z 07004KT M01/M01 A301 RMK A01 T10071013  RH  096%=      5-min Rain = 0
KFL1 130857Z 07004KT M01/M01 A301 RMK A01 T10081013  RH  096%=      5-min Rain = 0
KFL1 130858Z 07004KT M01/M01 A3011 RMK A01 T10081014  RH  096%=      5-min Rain = 0
KFL1 130859Z 08004KT M01/M01 A3011 RMK A01 T10081014  RH  096%=      5-min Rain = 0
KFL1 130900Z 08004KT M01/M01 A3011 RMK A01 T10071012  RH  096%=      5-min Rain = 0
KFL1 130901Z 08004KT M01/M02 A3011 RMK A01 T10091015  RH  096%=      5-min Rain = 0
KFL1 130902Z 08004KT M01/M01 A3011 RMK A01 T10081014  RH  096%=      5-min Rain = 0
KFL1 130903Z 08004KT M01/M02 A3011 RMK A01 T10111017  RH  096%=      5-min Rain = 0
KFL1 130904Z 08004KT M01/M02 A3011 RMK A01 T10121018  RH  095%=      5-min Rain = 0
KFL1 130905Z 07004KT M01/M02 A3011 RMK A01 T10121018  RH  096%=      5-min Rain = 0
KFL1 130906Z 07004KT M01/M02 A3011 RMK A01 T10121018  RH  096%=      5-min Rain = 0
KFL1 130907Z 07004KT M01/M02 A3011 RMK A01 T10121017  RH  096%=      5-min Rain = 0
KFL1 130908Z 06003KT M01/M02 A3011 RMK A01 T10141019  RH  096%=      5-min Rain = 0
KFL1 130909Z 07004KT M01/M02 A3011 RMK A01 T10131018  RH  096%=      5-min Rain = 0
KFL1 130910Z 06004KT M02/M02 A3011 RMK A01 T10151019  RH  097%=      5-min Rain = 0
KFL1 130911Z 05004KT M01/M02 A3011 RMK A01 T10141018  RH  097%=      5-min Rain = 0
KFL1 130912Z 05004KT M01/M02 A3011 RMK A01 T10141018  RH  097%=      5-min Rain = 0
KFL1 130913Z 05005KT M01/M02 A3011 RMK A01 T10131017  RH  098%=      5-min Rain = 0
KFL1 130914Z 05005KT M01/M02 A3011 RMK A01 T10141017  RH  098%=      5-min Rain = 0
KFL1 130915Z 05005KT M01/M02 A3011 RMK A01 T10141017  RH  098%=      5-min Rain = 0
KFL1 130916Z 06005KT M01/M02 A3011 RMK A01 T10141017  RH  098%=      5-min Rain = 0
KFL1 130917Z 05005KT M01/M02 A3011 RMK A01 T10121015  RH  098%=      5-min Rain = 0
KFL1 130918Z 06005KT M01/M02 A3011 RMK A01 T10121015  RH  098%=      5-min Rain = 0
KFL1 130919Z 06005KT M01/M02 A3011 RMK A01 T10121015  RH  098%=      5-min Rain = 0
KFL1 130920Z 05005KT M01/M02 A3011 RMK A01 T10121015  RH  098%=      5-min Rain = 0
KFL1 130921Z 05006KT M01/M02 A3011 RMK A01 T10131015  RH  099%=      5-min Rain = 0
KFL1 130922Z 05006KT M01/M01 A3011 RMK A01 T10131014  RH  099%=      5-min Rain = 0
KFL1 130923Z 05006KT M01/M01 A3011 RMK A01 T10121014  RH  099%=      5-min Rain = 0
KFL1 130924Z 05006KT M01/M02 A3011 RMK A01 T10131015  RH  099%=      5-min Rain = 0
KFL1 130925Z 05006KT M01/M01 A3011 RMK A01 T10121014  RH  099%=      5-min Rain = 0
KFL1 130926Z 05006KT M01/M01 A3011 RMK A01 T10121013  RH  099%=      5-min Rain = 0
KFL1 130927Z 05006KT M01/M01 A3011 RMK A01 T10121013  RH  099%=      5-min Rain = 0
KFL1 130928Z 05007KT M01/M01 A3011 RMK A01 T10111013  RH  099%=      5-min Rain = 0
KFL1 130929Z 05006KT M01/M01 A3011 RMK A01 T10121014  RH  099%=      5-min Rain = 0
KFL1 130930Z 05005KT M01/M01 A3011 RMK A01 T10121013  RH  099%=      5-min Rain = 0
KFL1 130931Z 06005KT M01/M01 A3011 RMK A01 T10121014  RH  099%=      5-min Rain = 0
KFL1 130932Z 05005KT M01/M01 A3011 RMK A01 T10121014  RH  099%=      5-min Rain = 0
KFL1 130933Z 06005KT M01/M01 A3011 RMK A01 T10131014  RH  099%=      5-min Rain = 0
KFL1 130934Z 05006KT M01/M01 A3011 RMK A01 T10131014  RH  099%=      5-min Rain = 0
KFL1 130935Z 06004KT M01/M01 A3011 RMK A01 T10121013  RH  099%=      5-min Rain = 0
KFL1 130936Z 06005KT M01/M01 A3011 RMK A01 T10111012  RH  099%=      5-min Rain = 0
KFL1 130937Z 06005KT M01/M01 A3011 RMK A01 T10121013  RH  099%=      5-min Rain = 0
KFL1 130938Z 06005KT M01/M01 A3011 RMK A01 T10111012  RH  100%=      5-min Rain = 0
KFL1 130939Z 06005KT M01/M01 A3011 RMK A01 T10131013  RH  099%=      5-min Rain = 0
KFL1 130940Z 05004KT M01/M01 A3011 RMK A01 T10121013  RH  099%=      5-min Rain = 0
KFL1 130941Z 06005KT M01/M01 A3011 RMK A01 T10121012  RH  100%=      5-min Rain = 0
KFL1 130942Z 06006KT M01/M01 A3012 RMK A01 T10121012  RH  100%=      5-min Rain = 0
KFL1 130943Z 06005KT M01/M01 A3012 RMK A01 T10121013  RH  100%=      5-min Rain = 0
KFL1 130944Z 06007KT M01/M01 A3012 RMK A01 T10111012  RH  100%=      5-min Rain = 0
KFL1 130945Z 06005KT M01/M01 A3012 RMK A01 T10121012  RH  100%=      5-min Rain = 0
KFL1 130946Z 06007KT M01/M01 A3012 RMK A01 T10121013  RH  100%=      5-min Rain = 0
KFL1 130947Z 05004KT M01/M01 A3012 RMK A01 T10111012  RH  100%=      5-min Rain = 0
KFL1 130948Z 05006KT M01/M01 A3012 RMK A01 T10111011  RH  100%=      5-min Rain = 0
KFL1 130949Z 05007KT M01/M01 A3012 RMK A01 T10121012  RH  100%=      5-min Rain = 0
KFL1 130950Z 05006KT M01/M01 A3012 RMK A01 T10101011  RH  100%=      5-min Rain = 0
KFL1 130951Z 05006KT M01/M01 A3012 RMK A01 T10111011  RH  100%=      5-min Rain = 0
KFL1 130952Z 05006KT M01/M01 A3012 RMK A01 T10111011  RH  100%=      5-min Rain = 0
KFL1 130953Z 05008KT M01/M01 A3012 RMK A01 T10111011  RH  100%=      5-min Rain = 0
KFL1 130954Z 05008KT M01/M01 A3012 RMK A01 T10101010  RH  100%=      5-min Rain = 0
KFL1 130955Z 05008KT M01/M01 A3012 RMK A01 T10111011  RH  100%=      5-min Rain = 0
KFL1 130956Z 05007KT M01/M01 A3012 RMK A01 T10101011  RH  100%=      5-min Rain = 0
KFL1 130957Z 05006KT M01/M01 A3012 RMK A01 T10101011  RH  100%=      5-min Rain = 0
KFL1 130958Z 05006KT M01/M01 A3012 RMK A01 T10111011  RH  100%=      5-min Rain = 0
KFL1 130959Z 05005KT M01/M01 A3012 RMK A01 T10101011  RH  100%=      5-min Rain = 0
KFL1 131000Z 06007KT M01/M01 A3012 RMK A01 T10101010  RH  100%=      5-min Rain = 0
KFL1 131001Z 06007KT M01/M01 A3012 RMK A01 T10101010  RH  100%=      5-min Rain = 0
KFL1 131002Z 06006KT M01/M01 A3012 RMK A01 T10101010  RH  100%=      5-min Rain = 0
KFL1 131003Z 07007KT M01/M01 A3012 RMK A01 T10111012  RH  100%=      5-min Rain = 0
KFL1 131004Z 08007KT M01/M01 A3012 RMK A01 T10121012  RH  100%=      5-min Rain = 0
KFL1 131005Z 08008KT M01/M01 A3012 RMK A01 T10111011  RH  100%=      5-min Rain = 0
KFL1 131006Z 08008KT M01/M01 A3012 RMK A01 T10111011  RH  100%=      5-min Rain = 0
KFL1 131007Z 08005KT M01/M01 A3013 RMK A01 T10101011  RH  100%=      5-min Rain = 0
KFL1 131008Z 08007KT M01/M01 A3013 RMK A01 T10111011  RH  100%=      5-min Rain = 0
KFL1 131009Z 08005KT M01/M01 A3012 RMK A01 T10101010  RH  100%=      5-min Rain = 0
KFL1 131010Z 08007KT M01/M01 A3012 RMK A01 T10091009  RH  100%=      5-min Rain = 0
KFL1 131011Z 08008KT M01/M01 A3012 RMK A01 T10101010  RH  100%=      5-min Rain = 0
KFL1 131012Z 06005KT M01/M01 A3012 RMK A01 T10081008  RH  100%=      5-min Rain = 0
KFL1 131013Z 07007KT M01/M01 A3012 RMK A01 T10081009  RH  100%=      5-min Rain = 0
KFL1 131014Z 07005KT M01/M01 A3012 RMK A01 T10081008  RH  100%=      5-min Rain = 0
KFL1 131015Z 08005KT M01/M01 A3012 RMK A01 T10081008  RH  100%=      5-min Rain = 0
KFL1 131016Z 08005KT M01/M01 A3012 RMK A01 T10081009  RH  100%=      5-min Rain = 0
KFL1 131017Z 09004KT M01/M01 A3013 RMK A01 T10081008  RH  100%=      5-min Rain = 0
KFL1 131018Z 08006KT M01/M01 A3013 RMK A01 T10071008  RH  100%=      5-min Rain = 0
KFL1 131019Z 08006KT M01/M01 A3012 RMK A01 T10081008  RH  100%=      5-min Rain = 0
KFL1 131020Z 06006KT M01/M01 A3012 RMK A01 T10071007  RH  100%=      5-min Rain = 0
KFL1 131021Z 07005KT M01/M01 A3012 RMK A01 T10071007  RH  100%=      5-min Rain = 0
KFL1 131022Z 07005KT M01/M01 A3012 RMK A01 T10071007  RH  100%=      5-min Rain = 0
KFL1 131023Z 07007KT M01/M01 A3013 RMK A01 T10081008  RH  100%=      5-min Rain = 0
KFL1 131024Z 07006KT M01/M01 A3013 RMK A01 T10071007  RH  100%=      5-min Rain = 0
KFL1 131025Z 08006KT M01/M01 A3013 RMK A01 T10061006  RH  100%=      5-min Rain = 0
KFL1 131026Z 07005KT M01/M01 A3013 RMK A01 T10061006  RH  100%=      5-min Rain = 0
KFL1 131027Z 07005KT M01/M01 A3013 RMK A01 T10061006  RH  100%=      5-min Rain = 0
KFL1 131028Z 05004KT M01/M01 A3013 RMK A01 T10071007  RH  100%=      5-min Rain = 0
KFL1 131029Z 06005KT M01/M01 A3013 RMK A01 T10071007  RH  100%=      5-min Rain = 0
KFL1 131030Z 06004KT M01/M01 A3013 RMK A01 T10061006  RH  100%=      5-min Rain = 0
KFL1 131031Z 07004KT M01/M01 A3013 RMK A01 T10071007  RH  100%=      5-min Rain = 0
KFL1 131032Z 06005KT M01/M01 A3013 RMK A01 T10061006  RH  100%=      5-min Rain = 0
KFL1 131033Z 06005KT M01/M01 A3013 RMK A01 T10051005  RH  100%=      5-min Rain = 0
KFL1 131034Z 06004KT M01/M01 A3013 RMK A01 T10061006  RH  100%=      5-min Rain = 0
KFL1 131035Z 05005KT M01/M01 A3013 RMK A01 T10071007  RH  100%=      5-min Rain = 0
KFL1 131036Z 06006KT M01/M01 A3013 RMK A01 T10071007  RH  100%=      5-min Rain = 0
KFL1 131037Z 06005KT M01/M01 A3013 RMK A01 T10061006  RH  100%=      5-min Rain = 0
KFL1 131038Z 05007KT M01/M01 A3013 RMK A01 T10061006  RH  100%=      5-min Rain = 0
KFL1 131039Z 03006KT M01/M01 A3013 RMK A01 T10061006  RH  100%=      5-min Rain = 0
KFL1 131040Z 04006KT M01/M01 A3013 RMK A01 T10071007  RH  100%=      5-min Rain = 0
KFL1 131041Z 05008KT M01/M01 A3013 RMK A01 T10061007  RH  100%=      5-min Rain = 0
KFL1 131042Z 06005KT M01/M01 A3013 RMK A01 T10051005  RH  100%=      5-min Rain = 0
KFL1 131043Z 05004KT M01/M01 A3013 RMK A01 T10071007  RH  100%=      5-min Rain = 0
KFL1 131044Z 06007KT M01/M01 A3013 RMK A01 T10061006  RH  100%=      5-min Rain = 0
KFL1 131045Z 06007KT M01/M01 A3013 RMK A01 T10051005  RH  100%=      5-min Rain = 0
KFL1 131046Z 06005KT M01/M01 A3013 RMK A01 T10061006  RH  100%=      5-min Rain = 0
KFL1 131047Z 06004KT M01/M01 A3013 RMK A01 T10061006  RH  100%=      5-min Rain = 0
KFL1 131048Z 06006KT M00/M00 A3013 RMK A01 T10041004  RH  100%=      5-min Rain = 0
KFL1 131049Z 06007KT M01/M01 A3013 RMK A01 T10061006  RH  100%=      5-min Rain = 0
KFL1 131050Z 07004KT M01/M01 A3013 RMK A01 T10051005  RH  100%=      5-min Rain = 0
KFL1 131051Z 06004KT M01/M01 A3014 RMK A01 T10051005  RH  100%=      5-min Rain = 0
KFL1 131052Z 06006KT M01/M01 A3014 RMK A01 T10051005  RH  100%=      5-min Rain = 0
KFL1 131053Z 07007KT M01/M01 A3014 RMK A01 T10051005  RH  100%=      5-min Rain = 0
KFL1 131054Z 07005KT M01/M01 A3014 RMK A01 T10051005  RH  100%=      5-min Rain = 0
KFL1 131055Z 07006KT M01/M01 A3014 RMK A01 T10051005  RH  100%=      5-min Rain = 0
KFL1 131056Z 06006KT M01/M01 A3014 RMK A01 T10051005  RH  100%=      5-min Rain = 0
KFL1 131057Z 07006KT M01/M01 A3014 RMK A01 T10051005  RH  100%=      5-min Rain = 0
KFL1 131058Z 07006KT M01/M01 A3013 RMK A01 T10051005  RH  100%=      5-min Rain = 0
KFL1 131059Z 07005KT M01/M01 A3013 RMK A01 T10051005  RH  100%=      5-min Rain = 0
KFL1 131100Z 06006KT M01/M01 A3013 RMK A01 T10051005  RH  100%=      5-min Rain = 0
KFL1 131101Z 06005KT M01/M01 A3013 RMK A01 T10051005  RH  100%=      5-min Rain = 0
KFL1 131102Z 06006KT M00/M00 A3013 RMK A01 T10041004  RH  100%=      5-min Rain = 0
KFL1 131103Z 07004KT M01/M01 A3013 RMK A01 T10061006  RH  100%=      5-min Rain = 0
KFL1 131104Z 06005KT M01/M01 A3014 RMK A01 T10051005  RH  100%=      5-min Rain = 0
KFL1 131105Z 05004KT M00/M00 A3014 RMK A01 T10041004  RH  100%=      5-min Rain = 0
KFL1 131106Z 05005KT M00/M00 A3014 RMK A01 T10041004  RH  100%=      5-min Rain = 0
KFL1 131107Z 04005KT M01/M01 A3014 RMK A01 T10051005  RH  100%=      5-min Rain = 0
KFL1 131108Z 06004KT M01/M01 A3014 RMK A01 T10051005  RH  100%=      5-min Rain = 0
KFL1 131109Z 06005KT M01/M01 A3014 RMK A01 T10051005  RH  100%=      5-min Rain = 0
KFL1 131110Z 06003KT M01/M01 A3014 RMK A01 T10061006  RH  100%=      5-min Rain = 0
KFL1 131111Z 05004KT M01/M01 A3014 RMK A01 T10051005  RH  100%=      5-min Rain = 0
KFL1 131112Z 06005KT M01/M01 A3014 RMK A01 T10051005  RH  100%=      5-min Rain = 0
KFL1 131113Z 06005KT M01/M01 A3014 RMK A01 T10051005  RH  100%=      5-min Rain = 0
KFL1 131114Z 06005KT M01/M01 A3014 RMK A01 T10051005  RH  100%=      5-min Rain = 0
KFL1 131115Z 06004KT M01/M01 A3014 RMK A01 T10051005  RH  100%=      5-min Rain = 0
KFL1 131116Z 06005KT M01/M01 A3014 RMK A01 T10061006  RH  100%=      5-min Rain = 0
KFL1 131117Z 05005KT M01/M01 A3014 RMK A01 T10061006  RH  100%=      5-min Rain = 0
KFL1 131118Z 06004KT M01/M01 A3014 RMK A01 T10061006  RH  100%=      5-min Rain = 0
KFL1 131119Z 05004KT M01/M01 A3014 RMK A01 T10051005  RH  100%=      5-min Rain = 0
KFL1 131120Z 06003KT M01/M01 A3014 RMK A01 T10061006  RH  100%=      5-min Rain = 0
KFL1 131121Z 06004KT M01/M01 A3014 RMK A01 T10061006  RH  100%=      5-min Rain = 0
KFL1 131122Z 06004KT M00/M00 A3014 RMK A01 T10041004  RH  100%=      5-min Rain = 0
KFL1 131123Z 06005KT M01/M01 A3014 RMK A01 T10051005  RH  100%=      5-min Rain = 0
KFL1 131124Z 05005KT M01/M01 A3014 RMK A01 T10051005  RH  100%=      5-min Rain = 0
KFL1 131125Z 07005KT M01/M01 A3014 RMK A01 T10061006  RH  100%=      5-min Rain = 0
KFL1 131126Z 05005KT M01/M01 A3014 RMK A01 T10061006  RH  100%=      5-min Rain = 0
KFL1 131127Z 06005KT M01/M01 A3014 RMK A01 T10051005  RH  100%=      5-min Rain = 0
KFL1 131128Z 06004KT M01/M01 A3014 RMK A01 T10061006  RH  100%=      5-min Rain = 0
KFL1 131129Z 06005KT M01/M01 A3014 RMK A01 T10061006  RH  100%=      5-min Rain = 0
KFL1 131130Z 06004KT M01/M01 A3014 RMK A01 T10061006  RH  100%=      5-min Rain = 0
KFL1 131131Z 06005KT M01/M01 A3014 RMK A01 T10061006  RH  100%=      5-min Rain = 0
KFL1 131132Z 05005KT M01/M01 A3014 RMK A01 T10051005  RH  100%=      5-min Rain = 0
KFL1 131133Z 06005KT M01/M01 A3014 RMK A01 T10051005  RH  100%=      5-min Rain = 0
KFL1 131134Z 06005KT M01/M01 A3014 RMK A01 T10071007  RH  100%=      5-min Rain = 0
KFL1 131135Z 06005KT M01/M01 A3014 RMK A01 T10061006  RH  100%=      5-min Rain = 0
KFL1 131136Z 06005KT M01/M01 A3014 RMK A01 T10071007  RH  100%=      5-min Rain = 0
KFL1 131137Z 06005KT M01/M01 A3014 RMK A01 T10061006  RH  100%=      5-min Rain = 0
KFL1 131138Z 06005KT M01/M01 A3014 RMK A01 T10071007  RH  100%=      5-min Rain = 0
KFL1 131139Z 06006KT M01/M01 A3014 RMK A01 T10071007  RH  100%=      5-min Rain = 0
KFL1 131140Z 05005KT M01/M01 A3015 RMK A01 T10071007  RH  100%=      5-min Rain = 0
KFL1 131141Z 05006KT M01/M01 A3015 RMK A01 T10071007  RH  100%=      5-min Rain = 0
KFL1 131142Z 05006KT M01/M01 A3015 RMK A01 T10071007  RH  100%=      5-min Rain = 0
KFL1 131143Z 05006KT M01/M01 A3015 RMK A01 T10071008  RH  100%=      5-min Rain = 0
KFL1 131144Z 04006KT M01/M01 A3015 RMK A01 T10091009  RH  100%=      5-min Rain = 0
KFL1 131145Z 05006KT M01/M01 A3015 RMK A01 T10071007  RH  100%=      5-min Rain = 0
KFL1 131146Z 05007KT M01/M01 A3015 RMK A01 T10061006  RH  100%=      5-min Rain = 0
KFL1 131147Z 05006KT M01/M01 A3015 RMK A01 T10061006  RH  100%=      5-min Rain = 0
KFL1 131148Z 05005KT M01/M01 A3015 RMK A01 T10051005  RH  100%=      5-min Rain = 0
KFL1 131149Z 06005KT M01/M01 A3015 RMK A01 T10061006  RH  100%=      5-min Rain = 0
KFL1 131150Z 05005KT M01/M01 A3015 RMK A01 T10061006  RH  100%=      5-min Rain = 0
KFL1 131151Z 05005KT M01/M01 A3015 RMK A01 T10061006  RH  100%=      5-min Rain = 0
KFL1 131152Z 06005KT M01/M01 A3015 RMK A01 T10061006  RH  100%=      5-min Rain = 0
KFL1 131153Z 05004KT M01/M01 A3015 RMK A01 T10061006  RH  100%=      5-min Rain = 0
KFL1 131154Z 05005KT M01/M01 A3015 RMK A01 T10051005  RH  100%=      5-min Rain = 0
KFL1 131155Z 04006KT M01/M01 A3015 RMK A01 T10061006  RH  100%=      5-min Rain = 0
KFL1 131156Z 04005KT M01/M01 A3015 RMK A01 T10061006  RH  100%=      5-min Rain = 0
KFL1 131157Z 04005KT M01/M01 A3015 RMK A01 T10051005  RH  100%=      5-min Rain = 0
KFL1 131158Z 04005KT M01/M01 A3015 RMK A01 T10061006  RH  100%=      5-min Rain = 0
KFL1 131159Z 04005KT M01/M01 A3015 RMK A01 T10051005  RH  100%=      5-min Rain = 0
KFL1 131200Z 05004KT M01/M01 A3015 RMK A01 T10051005  RH  100%=      5-min Rain = 0
KFL1 131201Z 05004KT M01/M01 A3015 RMK A01 T10051005  RH  100%=      5-min Rain = 0
KFL1 131202Z 05005KT M01/M01 A3015 RMK A01 T10051005  RH  100%=      5-min Rain = 0
KFL1 131203Z 05006KT M01/M01 A3015 RMK A01 T10061006  RH  100%=      5-min Rain = 0
KFL1 131204Z 05005KT M00/M00 A3015 RMK A01 T10031003  RH  100%=      5-min Rain = 0
KFL1 131205Z 05004KT M01/M01 A3015 RMK A01 T10051005  RH  100%=      5-min Rain = 0
KFL1 131206Z 06004KT M00/M00 A3015 RMK A01 T10041004  RH  100%=      5-min Rain = 0
KFL1 131207Z 06004KT M00/M01 A3015 RMK A01 T10041005  RH  100%=      5-min Rain = 0
KFL1 131208Z 05004KT M01/M01 A3015 RMK A01 T10051005  RH  100%=      5-min Rain = 0
KFL1 131209Z 06003KT M01/M01 A3015 RMK A01 T10051005  RH  100%=      5-min Rain = 0
KFL1 131210Z 06003KT M01/M01 A3015 RMK A01 T10051005  RH  100%=      5-min Rain = 0
KFL1 131211Z 06003KT M01/M01 A3015 RMK A01 T10051006  RH  100%=      5-min Rain = 0
KFL1 131212Z 06003KT M01/M01 A3015 RMK A01 T10051005  RH  100%=      5-min Rain = 0
KFL1 131213Z 06004KT M00/M00 A3015 RMK A01 T10041004  RH  100%=      5-min Rain = 0
KFL1 131214Z 06004KT M00/M01 A3015 RMK A01 T10041005  RH  100%=      5-min Rain = 0
KFL1 131215Z 06003KT M01/M01 A3015 RMK A01 T10061006  RH  100%=      5-min Rain = 0
KFL1 131216Z 07004KT M01/M01 A3015 RMK A01 T10061007  RH  100%=      5-min Rain = 0
KFL1 131217Z 08003KT M00/M01 A3015 RMK A01 T10041005  RH  100%=      5-min Rain = 0
KFL1 131218Z 08004KT M01/M01 A3015 RMK A01 T10061007  RH  100%=      5-min Rain = 0
KFL1 131219Z 08005KT M01/M01 A3015 RMK A01 T10071008  RH  099%=      5-min Rain = 0
KFL1 131220Z 07004KT M01/M01 A3015 RMK A01 T10061007  RH  099%=      5-min Rain = 0
KFL1 131221Z 08004KT M01/M01 A3016 RMK A01 T10061007  RH  100%=      5-min Rain = 0
KFL1 131222Z 07004KT M01/M01 A3016 RMK A01 T10061007  RH  100%=      5-min Rain = 0
KFL1 131223Z 06004KT M01/M01 A3016 RMK A01 T10061007  RH  100%=      5-min Rain = 0
KFL1 131224Z 06004KT M01/M01 A3016 RMK A01 T10051006  RH  100%=      5-min Rain = 0
KFL1 131225Z 06004KT M01/M01 A3016 RMK A01 T10051005  RH  100%=      5-min Rain = 0
KFL1 131226Z 06005KT M00/M01 A3016 RMK A01 T10041005  RH  100%=      5-min Rain = 0
KFL1 131227Z 05004KT M01/M01 A3016 RMK A01 T10051005  RH  100%=      5-min Rain = 0
KFL1 131228Z 05005KT M00/M00 A3016 RMK A01 T10031003  RH  100%=      5-min Rain = 0
KFL1 131229Z 04004KT M00/M01 A3016 RMK A01 T10041005  RH  100%=      5-min Rain = 0
KFL1 131230Z 04004KT M00/M01 A3016 RMK A01 T10041005  RH  100%=      5-min Rain = 0
KFL1 131231Z 04004KT M00/M01 A3016 RMK A01 T10041005  RH  100%=      5-min Rain = 0
KFL1 131232Z 04004KT M00/M01 A3016 RMK A01 T10041005  RH  100%=      5-min Rain = 0
KFL1 131233Z 05003KT M00/M01 A3016 RMK A01 T10041005  RH  100%=      5-min Rain = 0
KFL1 131234Z 04003KT M00/M01 A3016 RMK A01 T10041005  RH  100%=      5-min Rain = 0
KFL1 131235Z 04003KT M01/M01 A3016 RMK A01 T10061007  RH  099%=      5-min Rain = 0
KFL1 131236Z 04003KT M00/M00 A3016 RMK A01 T10031004  RH  100%=      5-min Rain = 0
KFL1 131237Z 05003KT M00/M00 A3016 RMK A01 T10031004  RH  100%=      5-min Rain = 0
KFL1 131238Z 04003KT M01/M01 A3016 RMK A01 T10051005  RH  099%=      5-min Rain = 0
KFL1 131239Z 04003KT M00/M00 A3016 RMK A01 T10021003  RH  100%=      5-min Rain = 0
KFL1 131240Z 03003KT M00/M01 A3016 RMK A01 T10041005  RH  100%=      5-min Rain = 0
KFL1 131241Z 03003KT M00/M00 A3016 RMK A01 T10031004  RH  100%=      5-min Rain = 0
KFL1 131242Z 04002KT M00/M00 A3016 RMK A01 T10041004  RH  099%=      5-min Rain = 0
KFL1 131243Z 05002KT M00/M00 A3016 RMK A01 T10031004  RH  100%=      5-min Rain = 0
KFL1 131244Z 04002KT M00/M00 A3016 RMK A01 T10031004  RH  100%=      5-min Rain = 0
KFL1 131245Z 03002KT M00/M00 A3016 RMK A01 T10031003  RH  100%=      5-min Rain = 0
KFL1 131246Z 02002KT M00/M01 A3016 RMK A01 T10041005  RH  099%=      5-min Rain = 0
KFL1 131247Z 35002KT M00/M00 A3017 RMK A01 T10031003  RH  100%=      5-min Rain = 0
KFL1 131248Z 33003KT M00/M00 A3017 RMK A01 T10031004  RH  100%=      5-min Rain = 0
KFL1 131249Z 33003KT M00/M00 A3017 RMK A01 T10031004  RH  099%=      5-min Rain = 0
KFL1 131250Z 34003KT M00/M00 A3017 RMK A01 T10021003  RH  100%=      5-min Rain = 0
KFL1 131251Z 36004KT M00/M00 A3017 RMK A01 T10031004  RH  099%=      5-min Rain = 0
KFL1 131252Z 02004KT M00/M00 A3017 RMK A01 T10021003  RH  100%=      5-min Rain = 0
KFL1 131253Z 02003KT M00/M00 A3017 RMK A01 T10041004  RH  100%=      5-min Rain = 0
KFL1 131254Z 03003KT M00/M01 A3017 RMK A01 T10041005  RH  100%=      5-min Rain = 0
KFL1 131255Z 02003KT M00/M01 A3017 RMK A01 T10041005  RH  099%=      5-min Rain = 0
KFL1 131256Z 02003KT M00/M00 A3017 RMK A01 T10041004  RH  099%=      5-min Rain = 0
KFL1 131257Z 02002KT M00/M01 A3017 RMK A01 T10041005  RH  100%=      5-min Rain = 0
KFL1 131258Z 01002KT M00/M00 A3017 RMK A01 T10041004  RH  100%=      5-min Rain = 0
KFL1 131259Z 03002KT M00/M01 A3017 RMK A01 T10041005  RH  100%=      5-min Rain = 0
KFL1 131300Z 02002KT M00/M00 A3017 RMK A01 T10031004  RH  100%=      5-min Rain = 0
KFL1 131301Z 02002KT M00/M00 A3017 RMK A01 T10031004  RH  100%=      5-min Rain = 0
KFL1 131302Z 03002KT M00/M00 A3017 RMK A01 T10041004  RH  100%=      5-min Rain = 0
KFL1 131303Z 03002KT M00/M00 A3017 RMK A01 T10031004  RH  100%=      5-min Rain = 0
KFL1 131304Z 03002KT M00/M00 A3017 RMK A01 T10031003  RH  100%=      5-min Rain = 0
KFL1 131305Z 04002KT M00/M00 A3017 RMK A01 T10021003  RH  100%=      5-min Rain = 0
KFL1 131306Z 05002KT M00/M00 A3017 RMK A01 T10031004  RH  100%=      5-min Rain = 0
KFL1 131307Z 04002KT M00/M00 A3017 RMK A01 T10021002  RH  100%=      5-min Rain = 0
KFL1 131308Z 04002KT M00/M00 A3017 RMK A01 T10021003  RH  100%=      5-min Rain = 0
KFL1 131309Z 05003KT M00/M00 A3017 RMK A01 T10021003  RH  100%=      5-min Rain = 0
KFL1 131310Z 05003KT M00/M00 A3017 RMK A01 T10021003  RH  100%=      5-min Rain = 0
KFL1 131311Z 05003KT M00/M00 A3017 RMK A01 T10021003  RH  100%=      5-min Rain = 0
KFL1 131312Z 05003KT M00/M00 A3017 RMK A01 T10031003  RH  100%=      5-min Rain = 0
KFL1 131313Z 05003KT M00/M00 A3017 RMK A01 T10031004  RH  100%=      5-min Rain = 0
KFL1 131314Z 06003KT M00/M00 A3017 RMK A01 T10031004  RH  100%=      5-min Rain = 0
KFL1 131315Z 05004KT M00/M00 A3017 RMK A01 T10011002  RH  100%=      5-min Rain = 0
KFL1 131316Z 05003KT M00/M00 A3017 RMK A01 T10011002  RH  100%=      5-min Rain = 0
KFL1 131317Z 05004KT M00/M00 A3017 RMK A01 T10021003  RH  100%=      5-min Rain = 0
KFL1 131318Z 04003KT M00/M01 A3017 RMK A01 T10041005  RH  099%=      5-min Rain = 0
KFL1 131319Z 04003KT M01/M01 A3017 RMK A01 T10051006  RH  099%=      5-min Rain = 0
KFL1 131320Z 03003KT M01/M01 A3017 RMK A01 T10051006  RH  099%=      5-min Rain = 0
KFL1 131321Z 03004KT M01/M01 A3017 RMK A01 T10051006  RH  099%=      5-min Rain = 0
KFL1 131322Z 03004KT M01/M01 A3017 RMK A01 T10061007  RH  099%=      5-min Rain = 0
KFL1 131323Z 03004KT M01/M01 A3017 RMK A01 T10061007  RH  099%=      5-min Rain = 0
KFL1 131324Z 03004KT M01/M01 A3017 RMK A01 T10061007  RH  099%=      5-min Rain = 0
KFL1 131325Z 03005KT M01/M01 A3018 RMK A01 T10071008  RH  099%=      5-min Rain = 0
KFL1 131326Z 03005KT M01/M01 A3018 RMK A01 T10071008  RH  099%=      5-min Rain = 0
KFL1 131327Z 02005KT M01/M01 A3018 RMK A01 T10081010  RH  099%=      5-min Rain = 0
KFL1 131328Z 02005KT M01/M01 A3018 RMK A01 T10091010  RH  099%=      5-min Rain = 0
KFL1 131329Z 02005KT M01/M01 A3018 RMK A01 T10081010  RH  099%=      5-min Rain = 0
KFL1 131330Z 02005KT M01/M01 A3018 RMK A01 T10101011  RH  099%=      5-min Rain = 0
KFL1 131331Z 02005KT M01/M01 A3018 RMK A01 T10101011  RH  099%=      5-min Rain = 0
KFL1 131332Z 02005KT M01/M01 A3018 RMK A01 T10101012  RH  099%=      5-min Rain = 0
KFL1 131333Z 03005KT M01/M01 A3018 RMK A01 T10111013  RH  099%=      5-min Rain = 0
KFL1 131334Z 03004KT M01/M01 A3018 RMK A01 T10091010  RH  099%=      5-min Rain = 0
KFL1 131335Z 04003KT M01/M01 A3018 RMK A01 T10081009  RH  099%=      5-min Rain = 0
KFL1 131336Z 04003KT M01/M01 A3018 RMK A01 T10071008  RH  099%=      5-min Rain = 0
KFL1 131337Z 05004KT M01/M01 A3018 RMK A01 T10051006  RH  099%=      5-min Rain = 0
KFL1 131338Z 07003KT M01/M01 A3018 RMK A01 T10051006  RH  099%=      5-min Rain = 0
KFL1 131339Z 06003KT M01/M01 A3018 RMK A01 T10051006  RH  099%=      5-min Rain = 0
KFL1 131340Z 06003KT M00/M01 A3018 RMK A01 T10041005  RH  099%=      5-min Rain = 0
KFL1 131341Z 06003KT M01/M01 A3018 RMK A01 T10061007  RH  099%=      5-min Rain = 0
KFL1 131342Z 06003KT M01/M01 A3018 RMK A01 T10061008  RH  099%=      5-min Rain = 0
KFL1 131343Z 07003KT M01/M01 A3018 RMK A01 T10081009  RH  099%=      5-min Rain = 0
KFL1 131344Z 05002KT M01/M01 A3018 RMK A01 T10081010  RH  099%=      5-min Rain = 0
KFL1 131345Z 05002KT M01/M01 A3018 RMK A01 T10081010  RH  099%=      5-min Rain = 0
KFL1 131346Z 06003KT M01/M01 A3018 RMK A01 T10071009  RH  099%=      5-min Rain = 0
KFL1 131347Z 06003KT M01/M01 A3019 RMK A01 T10071009  RH  099%=      5-min Rain = 0
KFL1 131348Z 05002KT M01/M01 A3019 RMK A01 T10081009  RH  099%=      5-min Rain = 0
KFL1 131349Z 06003KT M01/M01 A3019 RMK A01 T10071008  RH  099%=      5-min Rain = 0
KFL1 131350Z 06002KT M01/M01 A3019 RMK A01 T10061008  RH  099%=      5-min Rain = 0
KFL1 131351Z 05002KT M01/M01 A3019 RMK A01 T10081010  RH  099%=      5-min Rain = 0
KFL1 131352Z 05002KT M01/M01 A3019 RMK A01 T10081009  RH  099%=      5-min Rain = 0
KFL1 131353Z 05003KT M01/M01 A3019 RMK A01 T10081009  RH  099%=      5-min Rain = 0
KFL1 131354Z 04003KT M01/M01 A3019 RMK A01 T10061007  RH  099%=      5-min Rain = 0
KFL1 131355Z 04003KT M01/M01 A3019 RMK A01 T10061007  RH  099%=      5-min Rain = 0
KFL1 131356Z 05003KT M01/M01 A3019 RMK A01 T10061008  RH  099%=      5-min Rain = 0
KFL1 131357Z 05003KT M01/M01 A3019 RMK A01 T10051006  RH  099%=      5-min Rain = 0
KFL1 131358Z 04003KT M01/M01 A3019 RMK A01 T10051007  RH  099%=      5-min Rain = 0
KFL1 131359Z 04003KT M00/M01 A3019 RMK A01 T10041005  RH  099%=      5-min Rain = 0
KFL1 131400Z 04003KT M00/M01 A3019 RMK A01 T10041005  RH  099%=      5-min Rain = 0
KFL1 131401Z 04003KT M00/M00 A3019 RMK A01 T10031004  RH  099%=      5-min Rain = 0
KFL1 131402Z 05003KT M00/M01 A3019 RMK A01 T10041005  RH  099%=      5-min Rain = 0
KFL1 131403Z 06003KT M00/M00 A3019 RMK A01 T10031004  RH  099%=      5-min Rain = 0
KFL1 131404Z 07003KT M00/M00 A3019 RMK A01 T10031004  RH  099%=      5-min Rain = 0
KFL1 131405Z 07003KT M00/M00 A302 RMK A01 T10031004  RH  099%=      5-min Rain = 0
KFL1 131406Z 07004KT M00/M00 A3019 RMK A01 T10031004  RH  099%=      5-min Rain = 0
KFL1 131407Z 07004KT M00/M00 A3019 RMK A01 T10031004  RH  099%=      5-min Rain = 0
KFL1 131408Z 08001KT M00/M00 A3019 RMK A01 T10031004  RH  099%=      5-min Rain = 0
KFL1 131409Z 30001KT M00/M00 A302 RMK A01 T10031004  RH  099%=      5-min Rain = 0
KFL1 131410Z 31001KT M00/M00 A302 RMK A01 T10031004  RH  099%=      5-min Rain = 0
KFL1 131411Z 34002KT M00/M00 A302 RMK A01 T10021003  RH  099%=      5-min Rain = 0
KFL1 131412Z 04003KT M00/M00 A302 RMK A01 T10031004  RH  099%=      5-min Rain = 0
KFL1 131413Z 04004KT M00/M00 A302 RMK A01 T10021003  RH  099%=      5-min Rain = 0
KFL1 131414Z 03004KT M00/M00 A302 RMK A01 T10021003  RH  099%=      5-min Rain = 0
KFL1 131415Z 03003KT M00/M00 A302 RMK A01 T10021003  RH  099%=      5-min Rain = 0
KFL1 131416Z 03004KT M00/M00 A302 RMK A01 T10031004  RH  099%=      5-min Rain = 0
KFL1 131417Z 04003KT M00/M00 A302 RMK A01 T10021003  RH  099%=      5-min Rain = 0
KFL1 131418Z 04004KT M00/M00 A302 RMK A01 T10031004  RH  099%=      5-min Rain = 0
KFL1 131419Z 04004KT M00/M00 A302 RMK A01 T10021004  RH  099%=      5-min Rain = 0
KFL1 131420Z 04004KT M00/M00 A302 RMK A01 T10021003  RH  099%=      5-min Rain = 0
KFL1 131421Z 03004KT M00/M00 A302 RMK A01 T10021003  RH  099%=      5-min Rain = 0
KFL1 131422Z 04003KT M00/M00 A302 RMK A01 T10011002  RH  099%=      5-min Rain = 0
KFL1 131423Z 03004KT 00/00 A302 RMK A01 T00-000-1  RH  099%=      5-min Rain = 0
KFL1 131424Z 03004KT 00/00 A302 RMK A01 T00-000-1  RH  099%=      5-min Rain = 0
KFL1 131425Z 03004KT M00/M00 A302 RMK A01 T10011002  RH  099%=      5-min Rain = 0
KFL1 131426Z 02003KT 00/00 A302 RMK A01 T00-000-2  RH  099%=      5-min Rain = 0
KFL1 131427Z 03004KT 00/00 A302 RMK A01 T00-000-2  RH  099%=      5-min Rain = 0
KFL1 131428Z 03004KT M00/M00 A302 RMK A01 T10011003  RH  099%=      5-min Rain = 0
KFL1 131429Z 03003KT M00/M00 A302 RMK A01 T10011002  RH  099%=      5-min Rain = 0
KFL1 131430Z 04003KT M00/M00 A3021 RMK A01 T10011003  RH  099%=      5-min Rain = 0
KFL1 131431Z 04003KT 00/00 A3021 RMK A01 T00-000-2  RH  099%=      5-min Rain = 0
KFL1 131432Z 05003KT 00/00 A3021 RMK A01 T000100-0  RH  099%=      5-min Rain = 0
KFL1 131433Z 05003KT 00/00 A3021 RMK A01 T000100-0  RH  099%=      5-min Rain = 0
KFL1 131434Z 05003KT 00/00 A3021 RMK A01 T00020001  RH  099%=      5-min Rain = 0
KFL1 131435Z 05003KT 00/00 A3021 RMK A01 T000100-0  RH  099%=      5-min Rain = 0
KFL1 131436Z 06003KT 00/M00 A3021 RMK A01 T00011001  RH  099%=      5-min Rain = 0
KFL1 131437Z 05003KT 00/M00 A3021 RMK A01 T00011001  RH  099%=      5-min Rain = 0
KFL1 131438Z 05004KT 00/M00 A3021 RMK A01 T00011001  RH  099%=      5-min Rain = 0
KFL1 131439Z 04004KT 00/00 A3021 RMK A01 T000000-2  RH  099%=      5-min Rain = 0
KFL1 131440Z 05004KT 00/00 A3021 RMK A01 T000200-0  RH  099%=      5-min Rain = 0
KFL1 131441Z 05002KT 00/00 A3021 RMK A01 T000200-0  RH  099%=      5-min Rain = 0
KFL1 131442Z 06003KT 00/00 A3021 RMK A01 T000200-0  RH  099%=      5-min Rain = 0
KFL1 131443Z 06002KT 00/M00 A3022 RMK A01 T00011001  RH  099%=      5-min Rain = 0
KFL1 131444Z 06002KT 00/M00 A3022 RMK A01 T00011001  RH  099%=      5-min Rain = 0
KFL1 131445Z 06002KT 00/00 A3022 RMK A01 T000000-2  RH  099%=      5-min Rain = 0
KFL1 131446Z 06003KT 00/00 A3022 RMK A01 T000000-2  RH  099%=      5-min Rain = 0
KFL1 131447Z 06003KT 00/00 A3022 RMK A01 T000200-0  RH  099%=      5-min Rain = 0
KFL1 131448Z 04002KT 00/00 A3022 RMK A01 T000000-2  RH  099%=      5-min Rain = 0
KFL1 131449Z 05002KT 00/M00 A3022 RMK A01 T00011001  RH  099%=      5-min Rain = 0
KFL1 131450Z 04002KT 00/M00 A3022 RMK A01 T00011001  RH  099%=      5-min Rain = 0
KFL1 131451Z 04002KT 00/M00 A3022 RMK A01 T00011001  RH  099%=      5-min Rain = 0
KFL1 131452Z 04002KT 00/M00 A3022 RMK A01 T00011001  RH  099%=      5-min Rain = 0
KFL1 131453Z 04001KT 00/00 A3022 RMK A01 T000200-0  RH  099%=      5-min Rain = 0
KFL1 131454Z 04001KT 00/00 A3022 RMK A01 T00020001  RH  099%=      5-min Rain = 0
KFL1 131455Z 04002KT 00/M00 A3022 RMK A01 T00011001  RH  099%=      5-min Rain = 0
KFL1 131456Z 04002KT 00/M00 A3022 RMK A01 T00011001  RH  099%=      5-min Rain = 0
KFL1 131457Z 04002KT 00/00 A3022 RMK A01 T000100-0  RH  099%=      5-min Rain = 0
KFL1 131458Z 06002KT 00/00 A3022 RMK A01 T000200-0  RH  099%=      5-min Rain = 0
KFL1 131459Z 05002KT 00/M00 A3022 RMK A01 T00011001  RH  099%=      5-min Rain = 0
KFL1 131500Z 06002KT 00/M00 A3023 RMK A01 T00011001  RH  099%=      5-min Rain = 0
KFL1 131501Z 05003KT 00/M00 A3023 RMK A01 T00011001  RH  099%=      5-min Rain = 0
KFL1 131502Z 05003KT 00/M00 A3023 RMK A01 T00011001  RH  099%=      5-min Rain = 0
KFL1 131503Z 05003KT 00/M00 A3023 RMK A01 T00011001  RH  099%=      5-min Rain = 0
KFL1 131504Z 05003KT 00/M00 A3023 RMK A01 T00011001  RH  099%=      5-min Rain = 0
KFL1 131505Z 05003KT 00/M00 A3023 RMK A01 T00011001  RH  099%=      5-min Rain = 0
KFL1 131506Z 06002KT 00/M00 A3023 RMK A01 T00011001  RH  098%=      5-min Rain = 0
KFL1 131507Z 05002KT 00/M00 A3023 RMK A01 T00011001  RH  098%=      5-min Rain = 0
KFL1 131508Z 05002KT 00/00 A3023 RMK A01 T00020000  RH  098%=      5-min Rain = 0
KFL1 131509Z 06002KT 00/M00 A3023 RMK A01 T00021001  RH  098%=      5-min Rain = 0
KFL1 131510Z 05002KT 00/00 A3023 RMK A01 T00030000  RH  098%=      5-min Rain = 0
KFL1 131511Z 06002KT 00/00 A3023 RMK A01 T00030000  RH  098%=      5-min Rain = 0
KFL1 131512Z 05002KT 01/00 A3023 RMK A01 T00050002  RH  098%=      5-min Rain = 0
KFL1 131513Z 06002KT 01/00 A3023 RMK A01 T00050002  RH  098%=      5-min Rain = 0
KFL1 131514Z 07002KT 01/00 A3023 RMK A01 T00050002  RH  098%=      5-min Rain = 0
KFL1 131515Z 07002KT 01/00 A3023 RMK A01 T00050002  RH  098%=      5-min Rain = 0
KFL1 131516Z 09002KT 01/00 A3023 RMK A01 T00060002  RH  098%=      5-min Rain = 0
KFL1 131517Z 08003KT 01/00 A3023 RMK A01 T00050002  RH  097%=      5-min Rain = 0
KFL1 131518Z 09003KT 01/00 A3023 RMK A01 T00060002  RH  097%=      5-min Rain = 0
KFL1 131519Z 08003KT 01/00 A3023 RMK A01 T00050001  RH  097%=      5-min Rain = 0
KFL1 131520Z 08003KT 01/00 A3023 RMK A01 T00060001  RH  097%=      5-min Rain = 0
KFL1 131521Z 08003KT 01/00 A3023 RMK A01 T00060002  RH  097%=      5-min Rain = 0
KFL1 131522Z 08003KT 01/00 A3024 RMK A01 T00070002  RH  097%=      5-min Rain = 0
KFL1 131523Z 08003KT 01/00 A3024 RMK A01 T00060001  RH  097%=      5-min Rain = 0
KFL1 131524Z 08003KT 01/00 A3024 RMK A01 T00080003  RH  097%=      5-min Rain = 0
KFL1 131525Z 08003KT 01/00 A3024 RMK A01 T00070002  RH  096%=      5-min Rain = 0
KFL1 131526Z 08003KT 01/00 A3024 RMK A01 T00070001  RH  096%=      5-min Rain = 0
KFL1 131527Z 07002KT 01/00 A3024 RMK A01 T00070002  RH  096%=      5-min Rain = 0
KFL1 131528Z 08002KT 01/00 A3024 RMK A01 T00090003  RH  096%=      5-min Rain = 0
KFL1 131529Z 08002KT 01/00 A3024 RMK A01 T00080003  RH  096%=      5-min Rain = 0
KFL1 131530Z 09003KT 01/00 A3024 RMK A01 T00080003  RH  096%=      5-min Rain = 0
KFL1 131531Z 09003KT 01/00 A3024 RMK A01 T00090003  RH  096%=      5-min Rain = 0
KFL1 131532Z 10003KT 01/00 A3024 RMK A01 T00100004  RH  096%=      5-min Rain = 0
KFL1 131533Z 09002KT 01/00 A3024 RMK A01 T00090002  RH  096%=      5-min Rain = 0
KFL1 131534Z 08004KT 01/00 A3025 RMK A01 T00090003  RH  096%=      5-min Rain = 0
KFL1 131535Z 08004KT 01/00 A3025 RMK A01 T00090003  RH  096%=      5-min Rain = 0
KFL1 131536Z 09003KT 01/00 A3025 RMK A01 T00100004  RH  096%=      5-min Rain = 0
KFL1 131537Z 09002KT 01/01 A3025 RMK A01 T00110005  RH  096%=      5-min Rain = 0
KFL1 131538Z 09002KT 01/00 A3025 RMK A01 T00110004  RH  095%=      5-min Rain = 0
KFL1 131539Z 09002KT 01/00 A3025 RMK A01 T00110004  RH  095%=      5-min Rain = 0
KFL1 131540Z 09003KT 01/00 A3025 RMK A01 T00100003  RH  095%=      5-min Rain = 0
KFL1 131541Z 09004KT 01/00 A3025 RMK A01 T00100003  RH  095%=      5-min Rain = 0
KFL1 131542Z 08003KT 01/00 A3025 RMK A01 T00100004  RH  095%=      5-min Rain = 0
KFL1 131543Z 07004KT 01/00 A3025 RMK A01 T00110004  RH  095%=      5-min Rain = 0
KFL1 131544Z 08003KT 01/00 A3025 RMK A01 T00100002  RH  095%=      5-min Rain = 0
KFL1 131545Z 08003KT 01/00 A3025 RMK A01 T00110003  RH  095%=      5-min Rain = 0
KFL1 131546Z 08002KT 01/00 A3025 RMK A01 T00120004  RH  095%=      5-min Rain = 0
KFL1 131547Z 08002KT 01/00 A3025 RMK A01 T00120004  RH  095%=      5-min Rain = 0
KFL1 131548Z 08003KT 01/00 A3025 RMK A01 T00120004  RH  094%=      5-min Rain = 0
KFL1 131549Z 08003KT 01/00 A3025 RMK A01 T00120003  RH  094%=      5-min Rain = 0
KFL1 131550Z 08002KT 01/00 A3025 RMK A01 T00120002  RH  093%=      5-min Rain = 0
KFL1 131551Z 07003KT 01/00 A3025 RMK A01 T00130003  RH  093%=      5-min Rain = 0
KFL1 131552Z 07003KT 01/00 A3025 RMK A01 T00130003  RH  093%=      5-min Rain = 0
KFL1 131553Z 07003KT 01/00 A3025 RMK A01 T00130003  RH  093%=      5-min Rain = 0
KFL1 131554Z 06003KT 01/00 A3025 RMK A01 T00140004  RH  093%=      5-min Rain = 0
KFL1 131555Z 07003KT 02/00 A3025 RMK A01 T00150004  RH  092%=      5-min Rain = 0
KFL1 131556Z 06003KT 02/00 A3025 RMK A01 T00150004  RH  092%=      5-min Rain = 0
KFL1 131557Z 07002KT 02/00 A3025 RMK A01 T00150004  RH  092%=      5-min Rain = 0
KFL1 131558Z 07002KT 02/00 A3025 RMK A01 T00150003  RH  092%=      5-min Rain = 0
KFL1 131559Z 06002KT 02/00 A3025 RMK A01 T00160004  RH  092%=      5-min Rain = 0
KFL1 131600Z 07003KT 02/00 A3025 RMK A01 T00150003  RH  092%=      5-min Rain = 0
KFL1 131601Z 07003KT 02/00 A3025 RMK A01 T00150003  RH  092%=      5-min Rain = 0
KFL1 131602Z 07002KT 02/00 A3025 RMK A01 T00160004  RH  091%=      5-min Rain = 0
KFL1 131603Z 08003KT 02/00 A3026 RMK A01 T00160004  RH  091%=      5-min Rain = 0
KFL1 131604Z 07002KT 02/00 A3026 RMK A01 T00160004  RH  092%=      5-min Rain = 0
KFL1 131605Z 08003KT 02/00 A3026 RMK A01 T00170004  RH  091%=      5-min Rain = 0
KFL1 131606Z 07002KT 02/00 A3026 RMK A01 T00160004  RH  091%=      5-min Rain = 0
KFL1 131607Z 09003KT 02/01 A3026 RMK A01 T00170005  RH  091%=      5-min Rain = 0
KFL1 131608Z 09004KT 02/00 A3026 RMK A01 T00170004  RH  091%=      5-min Rain = 0
KFL1 131609Z 08004KT 02/00 A3026 RMK A01 T00180004  RH  090%=      5-min Rain = 0
KFL1 131610Z 07004KT 02/00 A3026 RMK A01 T00190004  RH  090%=      5-min Rain = 0
KFL1 131611Z 06004KT 02/00 A3026 RMK A01 T00190004  RH  090%=      5-min Rain = 0
KFL1 131612Z 07002KT 02/00 A3026 RMK A01 T00200004  RH  090%=      5-min Rain = 0
KFL1 131613Z 06003KT 02/01 A3026 RMK A01 T00210005  RH  089%=      5-min Rain = 0
KFL1 131614Z 06004KT 02/00 A3026 RMK A01 T00230004  RH  087%=      5-min Rain = 0
KFL1 131615Z 06002KT 02/00 A3026 RMK A01 T00240003  RH  086%=      5-min Rain = 0
KFL1 131616Z 05002KT 03/01 A3026 RMK A01 T00270005  RH  086%=      5-min Rain = 0
KFL1 131617Z 06003KT 03/01 A3026 RMK A01 T00280005  RH  085%=      5-min Rain = 0
KFL1 131618Z 06004KT 03/01 A3026 RMK A01 T00300006  RH  084%=      5-min Rain = 0
KFL1 131619Z 06004KT 03/01 A3026 RMK A01 T00290005  RH  084%=      5-min Rain = 0
KFL1 131620Z 07003KT 03/00 A3026 RMK A01 T00300004  RH  083%=      5-min Rain = 0
KFL1 131621Z 05003KT 03/00 A3026 RMK A01 T00300003  RH  083%=      5-min Rain = 0
KFL1 131622Z 07004KT 03/00 A3026 RMK A01 T00290002  RH  083%=      5-min Rain = 0
KFL1 131623Z 06003KT 03/00 A3026 RMK A01 T00290002  RH  083%=      5-min Rain = 0
KFL1 131624Z 07004KT 03/00 A3026 RMK A01 T00290004  RH  083%=      5-min Rain = 0
KFL1 131625Z 07004KT 03/00 A3026 RMK A01 T00280003  RH  084%=      5-min Rain = 0
KFL1 131626Z 07004KT 03/00 A3026 RMK A01 T00270002  RH  084%=      5-min Rain = 0
KFL1 131627Z 07004KT 03/00 A3026 RMK A01 T00270002  RH  083%=      5-min Rain = 0
KFL1 131628Z 08003KT 03/00 A3026 RMK A01 T00270002  RH  084%=      5-min Rain = 0
KFL1 131629Z 09004KT 03/00 A3026 RMK A01 T00270004  RH  085%=      5-min Rain = 0.01
KFL1 131630Z 09004KT 03/00 A3026 RMK A01 T00260002  RH  084%=      5-min Rain = 0
KFL1 131631Z 08003KT 03/00 A3026 RMK A01 T00260003  RH  085%=      5-min Rain = 0
KFL1 131632Z 07003KT 03/00 A3027 RMK A01 T00250002  RH  085%=      5-min Rain = 0
KFL1 131633Z 07003KT 03/00 A3027 RMK A01 T00250002  RH  085%=      5-min Rain = 0
KFL1 131634Z 07003KT 03/00 A3027 RMK A01 T00260003  RH  085%=      5-min Rain = 0
KFL1 131635Z 06003KT 03/00 A3027 RMK A01 T00260003  RH  085%=      5-min Rain = 0.01
KFL1 131636Z 07002KT 03/00 A3027 RMK A01 T00270003  RH  085%=      5-min Rain = 0
KFL1 131637Z 07003KT 03/01 A3027 RMK A01 T00280005  RH  085%=      5-min Rain = 0
KFL1 131638Z 07003KT 03/01 A3027 RMK A01 T00290006  RH  085%=      5-min Rain = 0.01
KFL1 131639Z 07003KT 03/00 A3027 RMK A01 T00270003  RH  084%=      5-min Rain = 0
KFL1 131640Z 07003KT 03/00 A3027 RMK A01 T00270004  RH  085%=      5-min Rain = 0.01
KFL1 131641Z 07004KT 03/00 A3027 RMK A01 T00260004  RH  085%=      5-min Rain = 0.01
KFL1 131642Z 07003KT 03/00 A3027 RMK A01 T00270004  RH  085%=      5-min Rain = 0.02
KFL1 131643Z 07004KT 03/00 A3027 RMK A01 T00260003  RH  085%=      5-min Rain = 0.01
KFL1 131644Z 07003KT 03/00 A3027 RMK A01 T00260003  RH  085%=      5-min Rain = 0
KFL1 131645Z 08003KT 03/00 A3027 RMK A01 T00260003  RH  085%=      5-min Rain = 0.01
KFL1 131646Z 08003KT 03/00 A3027 RMK A01 T00250002  RH  085%=      5-min Rain = 0
KFL1 131647Z 08003KT 02/00 A3027 RMK A01 T00240001  RH  085%=      5-min Rain = 0
KFL1 131648Z 08002KT 02/00 A3027 RMK A01 T00240001  RH  085%=      5-min Rain = 0.01
KFL1 131649Z 08003KT 02/00 A3027 RMK A01 T00240002  RH  085%=      5-min Rain = 0
KFL1 131650Z 07003KT 02/00 A3027 RMK A01 T00240003  RH  086%=      5-min Rain = 0
KFL1 131651Z 07003KT 02/00 A3027 RMK A01 T00240001  RH  085%=      5-min Rain = 0.01
KFL1 131652Z 07003KT 03/00 A3027 RMK A01 T00260003  RH  085%=      5-min Rain = 0
KFL1 131653Z 07003KT 03/00 A3027 RMK A01 T00290004  RH  084%=      5-min Rain = 0.01
KFL1 131654Z 07003KT 03/00 A3027 RMK A01 T00310004  RH  083%=      5-min Rain = 0
KFL1 131655Z 07002KT 03/01 A3027 RMK A01 T00330005  RH  082%=      5-min Rain = 0
KFL1 131656Z 08003KT 03/01 A3027 RMK A01 T00340005  RH  081%=      5-min Rain = 0
KFL1 131657Z 08003KT 03/00 A3027 RMK A01 T00330004  RH  081%=      5-min Rain = 0.01
KFL1 131658Z 06003KT 03/00 A3028 RMK A01 T00320004  RH  082%=      5-min Rain = 0
KFL1 131659Z 07003KT 03/00 A3028 RMK A01 T00330003  RH  081%=      5-min Rain = 0
KFL1 131700Z 08005KT 04/01 A3028 RMK A01 T00350006  RH  081%=      5-min Rain = 0
KFL1 131701Z 07004KT 04/01 A3028 RMK A01 T00350006  RH  081%=      5-min Rain = 0
KFL1 131702Z 07003KT 03/00 A3028 RMK A01 T00340004  RH  081%=      5-min Rain = 0.01
KFL1 131703Z 07003KT 04/00 A3028 RMK A01 T00350004  RH  080%=      5-min Rain = 0
KFL1 131704Z 08003KT 04/01 A3028 RMK A01 T00350005  RH  081%=      5-min Rain = 0
KFL1 131705Z 07003KT 03/01 A3028 RMK A01 T00340005  RH  081%=      5-min Rain = 0
KFL1 131706Z 06003KT 04/01 A3028 RMK A01 T00350006  RH  081%=      5-min Rain = 0.01
KFL1 131707Z 08003KT 03/01 A3028 RMK A01 T00340005  RH  081%=      5-min Rain = 0
KFL1 131708Z 09003KT 03/00 A3028 RMK A01 T00330004  RH  081%=      5-min Rain = 0
KFL1 131709Z 08002KT 03/00 A3028 RMK A01 T00320003  RH  081%=      5-min Rain = 0
KFL1 131710Z 07003KT 03/00 A3028 RMK A01 T00320003  RH  082%=      5-min Rain = 0
KFL1 131711Z 11001KT 03/00 A3028 RMK A01 T00320004  RH  082%=      5-min Rain = 0
KFL1 131712Z 11003KT 03/00 A3028 RMK A01 T00300003  RH  082%=      5-min Rain = 0
KFL1 131713Z 10002KT 03/00 A3028 RMK A01 T00300002  RH  082%=      5-min Rain = 0.01
KFL1 131714Z 11003KT 03/00 A3028 RMK A01 T00300003  RH  082%=      5-min Rain = 0
KFL1 131715Z 11003KT 03/00 A3028 RMK A01 T00300002  RH  082%=      5-min Rain = 0
KFL1 131716Z 11002KT 03/00 A3028 RMK A01 T00300002  RH  082%=      5-min Rain = 0
KFL1 131717Z 10002KT 03/00 A3028 RMK A01 T00310003  RH  082%=      5-min Rain = 0
KFL1 131718Z 10002KT 03/00 A3028 RMK A01 T00300002  RH  082%=      5-min Rain = 0.01
KFL1 131719Z 12003KT 03/00 A3028 RMK A01 T00290003  RH  083%=      5-min Rain = 0
KFL1 131720Z 10003KT 03/00 A3029 RMK A01 T00280002  RH  083%=      5-min Rain = 0
KFL1 131721Z 12002KT 03/00 A3029 RMK A01 T00280002  RH  083%=      5-min Rain = 0
KFL1 131722Z 11002KT 03/00 A3029 RMK A01 T00280002  RH  083%=      5-min Rain = 0
KFL1 131723Z 11002KT 03/00 A3029 RMK A01 T00280001  RH  083%=      5-min Rain = 0
KFL1 131724Z 11002KT 03/00 A3029 RMK A01 T00280001  RH  082%=      5-min Rain = 0
KFL1 131725Z 10003KT 03/00 A3029 RMK A01 T00280002  RH  083%=      5-min Rain = 0.01
KFL1 131726Z 10003KT 03/00 A3029 RMK A01 T00290004  RH  083%=      5-min Rain = 0
KFL1 131727Z 10002KT 03/00 A3029 RMK A01 T00290004  RH  083%=      5-min Rain = 0
KFL1 131728Z 12002KT 03/00 A3029 RMK A01 T00280003  RH  083%=      5-min Rain = 0
KFL1 131729Z 13003KT 03/00 A3029 RMK A01 T00280001  RH  083%=      5-min Rain = 0
KFL1 131730Z 12004KT 03/00 A3029 RMK A01 T00280001  RH  083%=      5-min Rain = 0
KFL1 131731Z 12004KT 03/00 A3029 RMK A01 T00270001  RH  083%=      5-min Rain = 0
KFL1 131732Z 10004KT 03/00 A3029 RMK A01 T00270002  RH  084%=      5-min Rain = 0
KFL1 131733Z 09004KT 03/00 A3029 RMK A01 T00260002  RH  084%=      5-min Rain = 0
KFL1 131734Z 09004KT 03/00 A3029 RMK A01 T00270004  RH  085%=      5-min Rain = 0
KFL1 131735Z 10004KT 03/01 A3029 RMK A01 T00270005  RH  085%=      5-min Rain = 0
KFL1 131736Z 11004KT 03/00 A3029 RMK A01 T00260004  RH  086%=      5-min Rain = 0.01
KFL1 131737Z 10004KT 03/01 A3029 RMK A01 T00270005  RH  086%=      5-min Rain = 0
KFL1 131738Z 08004KT 03/01 A3029 RMK A01 T00260005  RH  086%=      5-min Rain = 0
KFL1 131739Z 08006KT 03/01 A3029 RMK A01 T00260005  RH  086%=      5-min Rain = 0
KFL1 131740Z 09005KT 03/01 A3029 RMK A01 T00270005  RH  085%=      5-min Rain = 0
KFL1 131741Z 08004KT 03/01 A3029 RMK A01 T00290006  RH  085%=      5-min Rain = 0
KFL1 131742Z 09004KT 03/01 A3029 RMK A01 T00300005  RH  084%=      5-min Rain = 0
KFL1 131743Z 10003KT 03/01 A3029 RMK A01 T00330007  RH  083%=      5-min Rain = 0.01
KFL1 131744Z 09003KT 04/01 A3029 RMK A01 T00350006  RH  082%=      5-min Rain = 0
KFL1 131745Z 07003KT 04/01 A3029 RMK A01 T00350006  RH  081%=      5-min Rain = 0
KFL1 131746Z 09002KT 04/01 A3029 RMK A01 T00360005  RH  080%=      5-min Rain = 0
KFL1 131747Z 10004KT 04/01 A303 RMK A01 T00370005  RH  080%=      5-min Rain = 0
KFL1 131748Z 09004KT 04/01 A303 RMK A01 T00370006  RH  080%=      5-min Rain = 0
KFL1 131749Z 09004KT 04/01 A303 RMK A01 T00370006  RH  080%=      5-min Rain = 0
KFL1 131750Z 10004KT 04/01 A303 RMK A01 T00360005  RH  080%=      5-min Rain = 0.01
KFL1 131751Z 09005KT 04/01 A3029 RMK A01 T00370005  RH  080%=      5-min Rain = 0
KFL1 131752Z 09004KT 04/01 A3029 RMK A01 T00360005  RH  080%=      5-min Rain = 0
KFL1 131753Z 09003KT 04/00 A303 RMK A01 T00360002  RH  079%=      5-min Rain = 0
KFL1 131754Z 13003KT 04/00 A303 RMK A01 T00360001  RH  078%=      5-min Rain = 0
KFL1 131755Z 15002KT 03/M00 A303 RMK A01 T00341002  RH  077%=      5-min Rain = 0
KFL1 131756Z 11001KT 03/M00 A303 RMK A01 T00331001  RH  078%=      5-min Rain = 0
KFL1 131757Z 09002KT 04/00 A3029 RMK A01 T00360001  RH  078%=      5-min Rain = 0
KFL1 131758Z 08002KT 04/00 A3029 RMK A01 T003900-0  RH  076%=      5-min Rain = 0
KFL1 131759Z 09002KT 04/00 A3029 RMK A01 T003900-0  RH  076%=      5-min Rain = 0.01
KFL1 131800Z 11003KT 04/00 A3029 RMK A01 T00380001  RH  077%=      5-min Rain = 0
KFL1 131801Z 10004KT 04/00 A3029 RMK A01 T00390002  RH  077%=      5-min Rain = 0
KFL1 131802Z 10002KT 04/M00 A3029 RMK A01 T00391001  RH  075%=      5-min Rain = 0
KFL1 131803Z 08002KT 04/00 A3029 RMK A01 T00410001  RH  075%=      5-min Rain = 0
KFL1 131804Z 07003KT 04/00 A3029 RMK A01 T004200-0  RH  074%=      5-min Rain = 0
KFL1 131805Z 08003KT 04/00 A3029 RMK A01 T00440003  RH  075%=      5-min Rain = 0.01
KFL1 131806Z 10003KT 04/00 A3029 RMK A01 T00440001  RH  074%=      5-min Rain = 0
KFL1 131807Z 10003KT 04/00 A3029 RMK A01 T00430001  RH  074%=      5-min Rain = 0
KFL1 131808Z 15003KT 04/M00 A3029 RMK A01 T00441002  RH  072%=      5-min Rain = 0
KFL1 131809Z 20002KT 04/M00 A3029 RMK A01 T00441003  RH  072%=      5-min Rain = 0
KFL1 131810Z 19001KT 04/M00 A3029 RMK A01 T00401004  RH  073%=      5-min Rain = 0
KFL1 131811Z 13002KT 04/M00 A3029 RMK A01 T00411003  RH  073%=      5-min Rain = 0
KFL1 131812Z 11002KT 05/00 A3029 RMK A01 T00450000  RH  073%=      5-min Rain = 0
KFL1 131813Z 12002KT 05/M00 A3029 RMK A01 T00461001  RH  071%=      5-min Rain = 0
KFL1 131814Z 07002KT 05/M00 A3029 RMK A01 T00471001  RH  071%=      5-min Rain = 0
KFL1 131815Z 12003KT 05/00 A3029 RMK A01 T00450000  RH  073%=      5-min Rain = 0.01
KFL1 131816Z 13003KT 04/00 A3029 RMK A01 T00430001  RH  074%=      5-min Rain = 0
KFL1 131817Z 16002KT 04/00 A3029 RMK A01 T00410003  RH  076%=      5-min Rain = 0
KFL1 131818Z 18002KT 04/00 A3029 RMK A01 T00410001  RH  076%=      5-min Rain = 0
KFL1 131819Z 21002KT 04/00 A3029 RMK A01 T004000-0  RH  075%=      5-min Rain = 0
KFL1 131820Z 18003KT 04/M00 A3029 RMK A01 T00391003  RH  074%=      5-min Rain = 0
KFL1 131821Z 17002KT 04/M00 A3029 RMK A01 T00391002  RH  074%=      5-min Rain = 0
KFL1 131822Z 18002KT 04/M00 A3029 RMK A01 T00381003  RH  074%=      5-min Rain = 0
KFL1 131823Z 17002KT 04/M00 A3029 RMK A01 T00381003  RH  074%=      5-min Rain = 0
KFL1 131824Z 20002KT 04/M00 A3029 RMK A01 T00381002  RH  075%=      5-min Rain = 0.01
KFL1 131825Z 21004KT 04/M00 A3029 RMK A01 T00391001  RH  075%=      5-min Rain = 0
KFL1 131826Z 21004KT 04/M00 A3029 RMK A01 T00381002  RH  075%=      5-min Rain = 0
KFL1 131827Z 21003KT 04/M00 A3029 RMK A01 T00361004  RH  075%=      5-min Rain = 0
KFL1 131828Z 22002KT 04/M00 A3029 RMK A01 T00351003  RH  076%=      5-min Rain = 0
KFL1 131829Z 22002KT 04/M00 A3029 RMK A01 T00351003  RH  076%=      5-min Rain = 0
KFL1 131830Z 22002KT 03/M00 A3029 RMK A01 T00341003  RH  076%=      5-min Rain = 0
KFL1 131831Z 22002KT 04/M00 A3029 RMK A01 T00351003  RH  076%=      5-min Rain = 0
KFL1 131832Z 21002KT 04/M00 A3029 RMK A01 T00351001  RH  077%=      5-min Rain = 0
KFL1 131833Z 20003KT 03/M00 A3029 RMK A01 T00341001  RH  077%=      5-min Rain = 0
KFL1 131834Z 20002KT 04/M00 A3029 RMK A01 T00351002  RH  077%=      5-min Rain = 0
KFL1 131835Z 21002KT 04/M00 A3029 RMK A01 T00351001  RH  077%=      5-min Rain = 0
KFL1 131836Z 20002KT 04/M00 A3029 RMK A01 T00351002  RH  077%=      5-min Rain = 0.01
KFL1 131837Z 20001KT 04/M00 A3029 RMK A01 T00361001  RH  076%=      5-min Rain = 0
KFL1 131838Z 22003KT 04/M00 A3029 RMK A01 T00371001  RH  076%=      5-min Rain = 0
KFL1 131839Z 21002KT 04/M00 A3029 RMK A01 T00351002  RH  076%=      5-min Rain = 0
KFL1 131840Z 19002KT 04/M00 A3029 RMK A01 T00361002  RH  076%=      5-min Rain = 0
KFL1 131841Z 18001KT 04/M00 A3029 RMK A01 T00351004  RH  075%=      5-min Rain = 0
KFL1 131842Z 19000KT 04/M00 A3029 RMK A01 T00381003  RH  074%=      5-min Rain = 0
KFL1 131843Z 21000KT 04/M00 A3029 RMK A01 T00381003  RH  074%=      5-min Rain = 0
KFL1 131844Z 00000KT 04/M00 A3029 RMK A01 T00381003  RH  074%=      5-min Rain = 0
KFL1 131845Z 00000KT 04/M00 A3029 RMK A01 T00381004  RH  074%=      5-min Rain = 0
KFL1 131846Z 33001KT 04/M00 A3029 RMK A01 T00361004  RH  075%=      5-min Rain = 0
KFL1 131847Z 35001KT 04/M01 A3029 RMK A01 T00351005  RH  075%=      5-min Rain = 0
KFL1 131848Z 16001KT 04/M00 A3029 RMK A01 T00361003  RH  076%=      5-min Rain = 0
KFL1 131849Z 15001KT 04/M01 A3029 RMK A01 T00351005  RH  075%=      5-min Rain = 0
KFL1 131850Z 16002KT 04/M00 A3029 RMK A01 T00361003  RH  076%=      5-min Rain = 0
KFL1 131851Z 16002KT 04/M00 A3029 RMK A01 T00351003  RH  076%=      5-min Rain = 0
KFL1 131852Z 12002KT 04/M00 A3029 RMK A01 T00351003  RH  076%=      5-min Rain = 0
KFL1 131853Z 13001KT 03/M01 A3029 RMK A01 T00331005  RH  076%=      5-min Rain = 0
KFL1 131854Z 12001KT 03/M00 A3029 RMK A01 T00331004  RH  077%=      5-min Rain = 0
KFL1 131855Z 06001KT 03/M00 A3029 RMK A01 T00341002  RH  077%=      5-min Rain = 0.01
KFL1 131856Z 03001KT 03/M00 A3029 RMK A01 T00331003  RH  077%=      5-min Rain = 0
KFL1 131857Z 07001KT 03/M00 A3029 RMK A01 T00331002  RH  078%=      5-min Rain = 0
KFL1 131858Z 35000KT 03/M00 A3029 RMK A01 T00341001  RH  078%=      5-min Rain = 0
KFL1 131859Z 01001KT 03/M00 A3029 RMK A01 T00341002  RH  078%=      5-min Rain = 0
KFL1 131900Z 35001KT 03/M00 A3029 RMK A01 T00331002  RH  077%=      5-min Rain = 0
KFL1 131901Z 35001KT 03/M00 A3029 RMK A01 T00331004  RH  077%=      5-min Rain = 0
KFL1 131902Z 33002KT 03/M00 A3029 RMK A01 T00331003  RH  077%=      5-min Rain = 0
KFL1 131903Z 33003KT 03/M00 A3029 RMK A01 T00321003  RH  078%=      5-min Rain = 0
KFL1 131904Z 34003KT 03/M00 A3029 RMK A01 T00311003  RH  079%=      5-min Rain = 0
KFL1 131905Z 35002KT 03/M00 A3029 RMK A01 T00291004  RH  079%=      5-min Rain = 0
KFL1 131906Z 34002KT 03/M00 A3029 RMK A01 T00291004  RH  079%=      5-min Rain = 0
KFL1 131907Z 33002KT 03/M00 A3029 RMK A01 T00291004  RH  079%=      5-min Rain = 0
KFL1 131908Z 32002KT 03/M00 A3029 RMK A01 T00301002  RH  080%=      5-min Rain = 0
KFL1 131909Z 34002KT 03/M00 A3029 RMK A01 T00301004  RH  078%=      5-min Rain = 0
KFL1 131910Z 35003KT 03/M01 A3029 RMK A01 T00331005  RH  076%=      5-min Rain = 0.01
KFL1 131911Z 35003KT 03/M00 A3029 RMK A01 T00341004  RH  076%=      5-min Rain = 0
KFL1 131912Z 35003KT 03/M00 A3029 RMK A01 T00321004  RH  078%=      5-min Rain = 0
KFL1 131913Z 00003KT 03/M00 A3029 RMK A01 T00311003  RH  079%=      5-min Rain = 0
KFL1 131914Z 36002KT 03/M00 A3029 RMK A01 T00291003  RH  080%=      5-min Rain = 0
KFL1 131915Z 00002KT 03/M00 A3029 RMK A01 T00291002  RH  080%=      5-min Rain = 0
KFL1 131916Z 01002KT 03/M00 A3029 RMK A01 T00281003  RH  080%=      5-min Rain = 0
KFL1 131917Z 02003KT 03/M00 A3029 RMK A01 T00291002  RH  081%=      5-min Rain = 0
KFL1 131918Z 02003KT 03/M00 A3029 RMK A01 T00271002  RH  081%=      5-min Rain = 0
KFL1 131919Z 02003KT 03/M00 A3029 RMK A01 T00271002  RH  081%=      5-min Rain = 0
KFL1 131920Z 03004KT 03/M00 A3029 RMK A01 T00261002  RH  081%=      5-min Rain = 0
KFL1 131921Z 03004KT 03/M00 A3029 RMK A01 T00261002  RH  082%=      5-min Rain = 0
KFL1 131922Z 04003KT 03/M00 A3029 RMK A01 T00271002  RH  082%=      5-min Rain = 0
KFL1 131923Z 03003KT 03/00 A3029 RMK A01 T00290000  RH  082%=      5-min Rain = 0
KFL1 131924Z 03003KT 03/M00 A3029 RMK A01 T00281001  RH  081%=      5-min Rain = 0.01
KFL1 131925Z 02004KT 03/M00 A3029 RMK A01 T00281001  RH  081%=      5-min Rain = 0
KFL1 131926Z 04003KT 03/M00 A3029 RMK A01 T00271001  RH  082%=      5-min Rain = 0
KFL1 131927Z 03004KT 03/M00 A3029 RMK A01 T00261002  RH  082%=      5-min Rain = 0
KFL1 131928Z 04004KT 03/00 A3029 RMK A01 T002700-0  RH  082%=      5-min Rain = 0
KFL1 131929Z 03004KT 03/00 A3029 RMK A01 T002800-0  RH  082%=      5-min Rain = 0
KFL1 131930Z 05003KT 03/00 A3029 RMK A01 T002900-0  RH  081%=      5-min Rain = 0
KFL1 131931Z 05003KT 03/00 A3029 RMK A01 T00310000  RH  081%=      5-min Rain = 0
KFL1 131932Z 06003KT 03/00 A3029 RMK A01 T00320000  RH  080%=      5-min Rain = 0
KFL1 131933Z 06003KT 03/00 A3029 RMK A01 T00340001  RH  079%=      5-min Rain = 0
KFL1 131934Z 04003KT 04/00 A3029 RMK A01 T003700-0  RH  077%=      5-min Rain = 0
KFL1 131935Z 08002KT 04/00 A3029 RMK A01 T00390000  RH  076%=      5-min Rain = 0
KFL1 131936Z 07003KT 04/00 A3029 RMK A01 T00390001  RH  076%=      5-min Rain = 0
KFL1 131937Z 07002KT 04/00 A3029 RMK A01 T004000-0  RH  075%=      5-min Rain = 0
KFL1 131938Z 06003KT 04/M00 A3029 RMK A01 T00411002  RH  074%=      5-min Rain = 0
KFL1 131939Z 03002KT 04/M00 A3029 RMK A01 T00421001  RH  074%=      5-min Rain = 0
KFL1 131940Z 06002KT 04/00 A3029 RMK A01 T00430001  RH  074%=      5-min Rain = 0
KFL1 131941Z 05003KT 04/00 A3029 RMK A01 T00420000  RH  075%=      5-min Rain = 0
KFL1 131942Z 05001KT 04/00 A3029 RMK A01 T00400000  RH  075%=      5-min Rain = 0
KFL1 131943Z 07002KT 04/00 A3029 RMK A01 T00400000  RH  075%=      5-min Rain = 0
KFL1 131944Z 08001KT 04/00 A3029 RMK A01 T00390001  RH  076%=      5-min Rain = 0
KFL1 131945Z 08002KT 04/00 A3029 RMK A01 T00390001  RH  076%=      5-min Rain = 0
KFL1 131946Z 07003KT 04/00 A3029 RMK A01 T00390001  RH  076%=      5-min Rain = 0
KFL1 131947Z 07003KT 04/00 A3029 RMK A01 T00400002  RH  076%=      5-min Rain = 0
KFL1 131948Z 06003KT 04/00 A3028 RMK A01 T003900-0  RH  076%=      5-min Rain = 0
KFL1 131949Z 04002KT 04/00 A3028 RMK A01 T00410000  RH  075%=      5-min Rain = 0
KFL1 131950Z 03002KT 04/00 A3029 RMK A01 T004200-0  RH  074%=      5-min Rain = 0
KFL1 131951Z 06003KT 05/M00 A3029 RMK A01 T00451001  RH  072%=      5-min Rain = 0
KFL1 131952Z 06003KT 05/M00 A3029 RMK A01 T00461003  RH  071%=      5-min Rain = 0.01
KFL1 131953Z 05002KT 05/00 A3029 RMK A01 T005000-0  RH  070%=      5-min Rain = 0
KFL1 131954Z 06003KT 05/M00 A3029 RMK A01 T00521001  RH  069%=      5-min Rain = 0
KFL1 131955Z 08002KT 05/00 A3029 RMK A01 T005400-0  RH  068%=      5-min Rain = 0
KFL1 131956Z 06001KT 06/00 A3029 RMK A01 T005600-0  RH  067%=      5-min Rain = 0
KFL1 131957Z 02001KT 06/00 A3028 RMK A01 T005800-0  RH  066%=      5-min Rain = 0
KFL1 131958Z 36002KT 06/M00 A3028 RMK A01 T00571003  RH  065%=      5-min Rain = 0
KFL1 131959Z 35001KT 06/M00 A3028 RMK A01 T00581002  RH  065%=      5-min Rain = 0
KFL1 132000Z 36002KT 06/M00 A3028 RMK A01 T00561003  RH  066%=      5-min Rain = 0
KFL1 132001Z 36002KT 06/M00 A3028 RMK A01 T00551002  RH  066%=      5-min Rain = 0
KFL1 132002Z 00001KT 06/M00 A3028 RMK A01 T00551002  RH  067%=      5-min Rain = 0
KFL1 132003Z 07001KT 06/M00 A3028 RMK A01 T00561001  RH  067%=      5-min Rain = 0
KFL1 132004Z 10002KT 06/00 A3028 RMK A01 T005700-0  RH  067%=      5-min Rain = 0.01
KFL1 132005Z 14004KT 06/M01 A3028 RMK A01 T00571005  RH  064%=      5-min Rain = 0
KFL1 132006Z 14004KT 06/M01 A3028 RMK A01 T00551011  RH  062%=      5-min Rain = 0
KFL1 132007Z 13002KT 05/M01 A3028 RMK A01 T00521012  RH  063%=      5-min Rain = 0
KFL1 132008Z 11003KT 05/M01 A3028 RMK A01 T00511013  RH  063%=      5-min Rain = 0
KFL1 132009Z 12001KT 05/M01 A3028 RMK A01 T00491013  RH  064%=      5-min Rain = 0
KFL1 132010Z 09000KT 05/M02 A3028 RMK A01 T00481016  RH  063%=      5-min Rain = 0
KFL1 132011Z 11000KT 05/M02 A3028 RMK A01 T00471016  RH  063%=      5-min Rain = 0
KFL1 132012Z 18000KT 05/M02 A3028 RMK A01 T00491016  RH  063%=      5-min Rain = 0
KFL1 132013Z 18001KT 05/M02 A3028 RMK A01 T00491018  RH  062%=      5-min Rain = 0
KFL1 132014Z 21000KT 05/M02 A3028 RMK A01 T00501016  RH  062%=      5-min Rain = 0
KFL1 132015Z 33002KT 05/M02 A3028 RMK A01 T00521017  RH  061%=      5-min Rain = 0
KFL1 132016Z 00002KT 05/M02 A3028 RMK A01 T00521015  RH  062%=      5-min Rain = 0
KFL1 132017Z 36002KT 05/M01 A3028 RMK A01 T00491014  RH  064%=      5-min Rain = 0
KFL1 132018Z 02002KT 05/M01 A3028 RMK A01 T00471013  RH  065%=      5-min Rain = 0
KFL1 132019Z 02002KT 05/M01 A3028 RMK A01 T00451011  RH  067%=      5-min Rain = 0
KFL1 132020Z 01002KT 04/M01 A3027 RMK A01 T00431011  RH  068%=      5-min Rain = 0
KFL1 132021Z 02000KT 04/M01 A3027 RMK A01 T00431010  RH  068%=      5-min Rain = 0
KFL1 132022Z 19000KT 04/M01 A3028 RMK A01 T00441014  RH  066%=      5-min Rain = 0
KFL1 132023Z 15002KT 05/M01 A3028 RMK A01 T00481014  RH  064%=      5-min Rain = 0
KFL1 132024Z 14002KT 05/M02 A3028 RMK A01 T00531015  RH  062%=      5-min Rain = 0
KFL1 132025Z 15002KT 06/M02 A3028 RMK A01 T00561016  RH  060%=      5-min Rain = 0
KFL1 132026Z 15002KT 06/M02 A3028 RMK A01 T00561015  RH  060%=      5-min Rain = 0
KFL1 132027Z 13003KT 06/M01 A3028 RMK A01 T00561014  RH  061%=      5-min Rain = 0
KFL1 132028Z 14003KT 06/M01 A3028 RMK A01 T00561012  RH  061%=      5-min Rain = 0.01
KFL1 132029Z 13005KT 06/M01 A3028 RMK A01 T00581007  RH  063%=      5-min Rain = 0
KFL1 132030Z 13003KT 06/M01 A3028 RMK A01 T00561008  RH  063%=      5-min Rain = 0
KFL1 132031Z 13004KT 06/M01 A3028 RMK A01 T00551010  RH  063%=      5-min Rain = 0
KFL1 132032Z 12005KT 05/M01 A3028 RMK A01 T00541008  RH  064%=      5-min Rain = 0
KFL1 132033Z 13004KT 05/M01 A3028 RMK A01 T00541006  RH  065%=      5-min Rain = 0
KFL1 132034Z 13004KT 05/M01 A3028 RMK A01 T00501008  RH  066%=      5-min Rain = 0
KFL1 132035Z 13006KT 05/M01 A3027 RMK A01 T00501007  RH  067%=      5-min Rain = 0
KFL1 132036Z 13005KT 05/M01 A3027 RMK A01 T00481009  RH  066%=      5-min Rain = 0
KFL1 132037Z 11005KT 05/M01 A3027 RMK A01 T00481010  RH  066%=      5-min Rain = 0
KFL1 132038Z 12005KT 05/M01 A3027 RMK A01 T00491009  RH  066%=      5-min Rain = 0
KFL1 132039Z 11005KT 05/M01 A3027 RMK A01 T00521009  RH  065%=      5-min Rain = 0
KFL1 132040Z 11005KT 05/M01 A3027 RMK A01 T00541009  RH  064%=      5-min Rain = 0
KFL1 132041Z 12005KT 06/M01 A3027 RMK A01 T00561010  RH  063%=      5-min Rain = 0
KFL1 132042Z 12005KT 06/M01 A3027 RMK A01 T00561010  RH  063%=      5-min Rain = 0
KFL1 132043Z 13003KT 06/M01 A3027 RMK A01 T00571009  RH  062%=      5-min Rain = 0.01
KFL1 132044Z 13003KT 06/M01 A3027 RMK A01 T00581010  RH  061%=      5-min Rain = 0
KFL1 132045Z 11003KT 06/M01 A3027 RMK A01 T00591011  RH  061%=      5-min Rain = 0
KFL1 132046Z 11003KT 06/M01 A3027 RMK A01 T00591009  RH  062%=      5-min Rain = 0
KFL1 132047Z 12005KT 06/M01 A3027 RMK A01 T00591011  RH  061%=      5-min Rain = 0
KFL1 132048Z 13004KT 06/M02 A3028 RMK A01 T00571015  RH  060%=      5-min Rain = 0
KFL1 132049Z 15003KT 06/M02 A3028 RMK A01 T00561016  RH  060%=      5-min Rain = 0
KFL1 132050Z 14004KT 06/M02 A3028 RMK A01 T00561016  RH  060%=      5-min Rain = 0
KFL1 132051Z 13004KT 06/M02 A3028 RMK A01 T00581016  RH  059%=      5-min Rain = 0
KFL1 132052Z 14002KT 06/M02 A3028 RMK A01 T00581016  RH  059%=      5-min Rain = 0
KFL1 132053Z 12001KT 06/M02 A3028 RMK A01 T00591016  RH  059%=      5-min Rain = 0
KFL1 132054Z 12003KT 06/M02 A3028 RMK A01 T00591016  RH  058%=      5-min Rain = 0
KFL1 132055Z 10003KT 06/M01 A3028 RMK A01 T00611013  RH  059%=      5-min Rain = 0
KFL1 132056Z 13004KT 06/M01 A3027 RMK A01 T00591014  RH  059%=      5-min Rain = 0
KFL1 132057Z 13004KT 06/M01 A3027 RMK A01 T00601014  RH  059%=      5-min Rain = 0
KFL1 132058Z 12003KT 06/M02 A3028 RMK A01 T00601016  RH  058%=      5-min Rain = 0
KFL1 132059Z 11004KT 06/M02 A3028 RMK A01 T00611016  RH  058%=      5-min Rain = 0
KFL1 132100Z 11004KT 06/M02 A3028 RMK A01 T00611017  RH  057%=      5-min Rain = 0
KFL1 132101Z 11003KT 06/M02 A3028 RMK A01 T00621016  RH  057%=      5-min Rain = 0
KFL1 132102Z 11002KT 06/M02 A3028 RMK A01 T00611016  RH  058%=      5-min Rain = 0
KFL1 132103Z 13002KT 06/M02 A3028 RMK A01 T00611019  RH  057%=      5-min Rain = 0
KFL1 132104Z 16001KT 06/M02 A3027 RMK A01 T00641016  RH  056%=      5-min Rain = 0.01
KFL1 132105Z 12005KT 07/M01 A3027 RMK A01 T00661014  RH  057%=      5-min Rain = 0
KFL1 132106Z 10004KT 06/M02 A3027 RMK A01 T00641017  RH  056%=      5-min Rain = 0
KFL1 132107Z 13003KT 06/M02 A3027 RMK A01 T00621016  RH  057%=      5-min Rain = 0
KFL1 132108Z 14003KT 06/M02 A3027 RMK A01 T00601019  RH  057%=      5-min Rain = 0
KFL1 132109Z 14003KT 06/M02 A3027 RMK A01 T00591018  RH  058%=      5-min Rain = 0
KFL1 132110Z 15004KT 06/M02 A3027 RMK A01 T00601017  RH  058%=      5-min Rain = 0
KFL1 132111Z 15004KT 06/M02 A3027 RMK A01 T00601020  RH  057%=      5-min Rain = 0
KFL1 132112Z 14003KT 06/M02 A3027 RMK A01 T00601020  RH  056%=      5-min Rain = 0
KFL1 132113Z 12003KT 06/M02 A3027 RMK A01 T00591020  RH  057%=      5-min Rain = 0
KFL1 132114Z 14002KT 06/M02 A3027 RMK A01 T00601020  RH  056%=      5-min Rain = 0
KFL1 132115Z 11003KT 06/M02 A3027 RMK A01 T00611021  RH  055%=      5-min Rain = 0
KFL1 132116Z 12003KT 06/M02 A3027 RMK A01 T00621019  RH  056%=      5-min Rain = 0.01
KFL1 132117Z 09002KT 06/M02 A3027 RMK A01 T00611019  RH  057%=      5-min Rain = 0
KFL1 132118Z 10004KT 06/M01 A3027 RMK A01 T00621013  RH  059%=      5-min Rain = 0
KFL1 132119Z 13003KT 06/M01 A3027 RMK A01 T00611014  RH  058%=      5-min Rain = 0
KFL1 132120Z 13003KT 06/M02 A3027 RMK A01 T00621015  RH  058%=      5-min Rain = 0
KFL1 132121Z 12004KT 06/M01 A3027 RMK A01 T00621014  RH  058%=      5-min Rain = 0
KFL1 132122Z 13003KT 06/M02 A3027 RMK A01 T00621016  RH  057%=      5-min Rain = 0
KFL1 132123Z 14004KT 06/M02 A3027 RMK A01 T00611020  RH  056%=      5-min Rain = 0.01
KFL1 132124Z 14003KT 06/M02 A3027 RMK A01 T00591022  RH  056%=      5-min Rain = 0
KFL1 132125Z 13003KT 06/M02 A3027 RMK A01 T00601022  RH  056%=      5-min Rain = 0
KFL1 132126Z 13003KT 06/M02 A3027 RMK A01 T00601022  RH  056%=      5-min Rain = 0
KFL1 132127Z 12003KT 06/M02 A3027 RMK A01 T00611020  RH  056%=      5-min Rain = 0
KFL1 132128Z 14002KT 06/M02 A3027 RMK A01 T00631019  RH  056%=      5-min Rain = 0
KFL1 132129Z 12002KT 06/M02 A3027 RMK A01 T00631020  RH  055%=      5-min Rain = 0
KFL1 132130Z 11002KT 07/M02 A3027 RMK A01 T00651019  RH  055%=      5-min Rain = 0
KFL1 132131Z 11002KT 07/M02 A3027 RMK A01 T00651016  RH  056%=      5-min Rain = 0
KFL1 132132Z 11004KT 07/M02 A3027 RMK A01 T00651016  RH  056%=      5-min Rain = 0
KFL1 132133Z 13003KT 06/M02 A3027 RMK A01 T00641020  RH  055%=      5-min Rain = 0
KFL1 132134Z 14002KT 06/M02 A3027 RMK A01 T00621021  RH  055%=      5-min Rain = 0
KFL1 132135Z 13002KT 06/M02 A3027 RMK A01 T00621024  RH  054%=      5-min Rain = 0
KFL1 132136Z 14002KT 06/M03 A3027 RMK A01 T00611025  RH  054%=      5-min Rain = 0
KFL1 132137Z 13002KT 06/M02 A3027 RMK A01 T00611023  RH  055%=      5-min Rain = 0
KFL1 132138Z 13003KT 06/M03 A3027 RMK A01 T00621025  RH  054%=      5-min Rain = 0
KFL1 132139Z 14002KT 06/M03 A3027 RMK A01 T00621026  RH  053%=      5-min Rain = 0
KFL1 132140Z 11002KT 06/M02 A3027 RMK A01 T00631024  RH  054%=      5-min Rain = 0
KFL1 132141Z 11002KT 06/M03 A3027 RMK A01 T00631025  RH  053%=      5-min Rain = 0
KFL1 132142Z 14002KT 06/M03 A3027 RMK A01 T00631026  RH  053%=      5-min Rain = 0
KFL1 132143Z 10001KT 06/M03 A3027 RMK A01 T00631026  RH  053%=      5-min Rain = 0
KFL1 132144Z 09001KT 06/M03 A3027 RMK A01 T00621026  RH  053%=      5-min Rain = 0
KFL1 132145Z 07001KT 07/M03 A3027 RMK A01 T00651025  RH  053%=      5-min Rain = 0
KFL1 132146Z 18001KT 07/M02 A3027 RMK A01 T00701021  RH  052%=      5-min Rain = 0
KFL1 132147Z 36000KT 07/M03 A3027 RMK A01 T00691027  RH  051%=      5-min Rain = 0
KFL1 132148Z 33002KT 07/M02 A3027 RMK A01 T00691021  RH  053%=      5-min Rain = 0
KFL1 132149Z 28002KT 07/M02 A3027 RMK A01 T00661018  RH  055%=      5-min Rain = 0
KFL1 132150Z 25003KT 06/M02 A3027 RMK A01 T00641020  RH  055%=      5-min Rain = 0
KFL1 132151Z 25002KT 06/M02 A3027 RMK A01 T00631023  RH  054%=      5-min Rain = 0
KFL1 132152Z 27002KT 06/M03 A3027 RMK A01 T00591025  RH  055%=      5-min Rain = 0
KFL1 132153Z 29002KT 06/M03 A3027 RMK A01 T00561025  RH  056%=      5-min Rain = 0
KFL1 132154Z 29003KT 06/M03 A3027 RMK A01 T00551025  RH  057%=      5-min Rain = 0
KFL1 132155Z 27002KT 05/M03 A3027 RMK A01 T00531025  RH  057%=      5-min Rain = 0
KFL1 132156Z 28002KT 05/M02 A3027 RMK A01 T00521024  RH  058%=      5-min Rain = 0
KFL1 132157Z 26001KT 05/M03 A3027 RMK A01 T00521027  RH  057%=      5-min Rain = 0
KFL1 132158Z 22000KT 05/M03 A3027 RMK A01 T00541028  RH  055%=      5-min Rain = 0
KFL1 132159Z 00000KT 06/M03 A3027 RMK A01 T00571028  RH  055%=      5-min Rain = 0
KFL1 132200Z 30001KT 06/M03 A3027 RMK A01 T00571028  RH  054%=      5-min Rain = 0
KFL1 132201Z 33002KT 06/M02 A3027 RMK A01 T00591024  RH  055%=      5-min Rain = 0
KFL1 132202Z 00002KT 06/M02 A3027 RMK A01 T00581023  RH  056%=      5-min Rain = 0
KFL1 132203Z 02001KT 06/M03 A3027 RMK A01 T00571026  RH  055%=      5-min Rain = 0
KFL1 132204Z 02002KT 06/M03 A3027 RMK A01 T00561029  RH  054%=      5-min Rain = 0
KFL1 132205Z 02002KT 06/M03 A3027 RMK A01 T00561031  RH  053%=      5-min Rain = 0
KFL1 132206Z 01002KT 06/M03 A3027 RMK A01 T00571031  RH  053%=      5-min Rain = 0
KFL1 132207Z 00002KT 06/M03 A3027 RMK A01 T00571031  RH  053%=      5-min Rain = 0
KFL1 132208Z 01001KT 06/M03 A3027 RMK A01 T00551029  RH  055%=      5-min Rain = 0
KFL1 132209Z 02001KT 05/M03 A3027 RMK A01 T00531028  RH  056%=      5-min Rain = 0
KFL1 132210Z 02001KT 05/M03 A3027 RMK A01 T00531028  RH  056%=      5-min Rain = 0
KFL1 132211Z 05002KT 05/M03 A3027 RMK A01 T00531028  RH  056%=      5-min Rain = 0
KFL1 132212Z 04002KT 05/M03 A3027 RMK A01 T00521025  RH  057%=      5-min Rain = 0
KFL1 132213Z 04000KT 05/M03 A3027 RMK A01 T00501026  RH  058%=      5-min Rain = 0
KFL1 132214Z 32001KT 05/M03 A3027 RMK A01 T00491028  RH  058%=      5-min Rain = 0
KFL1 132215Z 32001KT 05/M03 A3027 RMK A01 T00481029  RH  057%=      5-min Rain = 0
KFL1 132216Z 32001KT 05/M03 A3027 RMK A01 T00491027  RH  058%=      5-min Rain = 0
KFL1 132217Z 34000KT 05/M03 A3027 RMK A01 T00491027  RH  058%=      5-min Rain = 0
KFL1 132218Z 04000KT 05/M03 A3027 RMK A01 T00491028  RH  058%=      5-min Rain = 0
KFL1 132219Z 05000KT 05/M03 A3028 RMK A01 T00491028  RH  057%=      5-min Rain = 0
KFL1 132220Z 09000KT 05/M03 A3027 RMK A01 T00501029  RH  057%=      5-min Rain = 0
KFL1 132221Z 07001KT 05/M03 A3027 RMK A01 T00501030  RH  056%=      5-min Rain = 0
KFL1 132222Z 07001KT 05/M03 A3027 RMK A01 T00511028  RH  056%=      5-min Rain = 0
KFL1 132223Z 05001KT 05/M03 A3027 RMK A01 T00521028  RH  056%=      5-min Rain = 0
KFL1 132224Z 00001KT 05/M03 A3027 RMK A01 T00531028  RH  056%=      5-min Rain = 0
KFL1 132225Z 15000KT 05/M03 A3027 RMK A01 T00531030  RH  055%=      5-min Rain = 0
KFL1 132226Z 00000KT 05/M03 A3027 RMK A01 T00541030  RH  055%=      5-min Rain = 0
KFL1 132227Z 00000KT 06/M03 A3027 RMK A01 T00551028  RH  055%=      5-min Rain = 0
KFL1 132228Z 21000KT 06/M03 A3027 RMK A01 T00561029  RH  055%=      5-min Rain = 0
KFL1 132229Z 23001KT 06/M03 A3028 RMK A01 T00561033  RH  053%=      5-min Rain = 0
KFL1 132230Z 22001KT 06/M04 A3028 RMK A01 T00571038  RH  051%=      5-min Rain = 0
KFL1 132231Z 23001KT 06/M04 A3028 RMK A01 T00571037  RH  051%=      5-min Rain = 0
KFL1 132232Z 29000KT 06/M03 A3028 RMK A01 T00571029  RH  054%=      5-min Rain = 0
KFL1 132233Z 30001KT 05/M03 A3028 RMK A01 T00541028  RH  055%=      5-min Rain = 0
KFL1 132234Z 28001KT 05/M03 A3028 RMK A01 T00531026  RH  057%=      5-min Rain = 0
KFL1 132235Z 26002KT 05/M02 A3028 RMK A01 T00511023  RH  059%=      5-min Rain = 0
KFL1 132236Z 26001KT 05/M02 A3028 RMK A01 T00511021  RH  060%=      5-min Rain = 0
KFL1 132237Z 25002KT 05/M02 A3028 RMK A01 T00541021  RH  058%=      5-min Rain = 0
KFL1 132238Z 25002KT 06/M02 A3028 RMK A01 T00601024  RH  055%=      5-min Rain = 0
KFL1 132239Z 25001KT 06/M03 A3028 RMK A01 T00641029  RH  052%=      5-min Rain = 0
KFL1 132240Z 24001KT 07/M04 A3028 RMK A01 T00651035  RH  049%=      5-min Rain = 0
KFL1 132241Z 23000KT 07/M04 A3028 RMK A01 T00671040  RH  046%=      5-min Rain = 0
KFL1 132242Z 28001KT 07/M03 A3028 RMK A01 T00691034  RH  048%=      5-min Rain = 0
KFL1 132243Z 26002KT 07/M03 A3028 RMK A01 T00681032  RH  049%=      5-min Rain = 0
KFL1 132244Z 25001KT 07/M04 A3028 RMK A01 T00651036  RH  048%=      5-min Rain = 0
KFL1 132245Z 24001KT 06/M04 A3028 RMK A01 T00631040  RH  048%=      5-min Rain = 0
KFL1 132246Z 28001KT 06/M04 A3028 RMK A01 T00621043  RH  047%=      5-min Rain = 0
KFL1 132247Z 24001KT 06/M04 A3028 RMK A01 T00641039  RH  048%=      5-min Rain = 0
KFL1 132248Z 24001KT 06/M04 A3028 RMK A01 T00631040  RH  048%=      5-min Rain = 0
KFL1 132249Z 21001KT 06/M04 A3028 RMK A01 T00621040  RH  048%=      5-min Rain = 0
KFL1 132250Z 12002KT 07/M04 A3028 RMK A01 T00651035  RH  049%=      5-min Rain = 0
KFL1 132251Z 25001KT 07/M03 A3028 RMK A01 T00691034  RH  048%=      5-min Rain = 0
KFL1 132252Z 29002KT 07/M03 A3028 RMK A01 T00721034  RH  047%=      5-min Rain = 0
KFL1 132253Z 30001KT 08/M04 A3028 RMK A01 T00751038  RH  045%=      5-min Rain = 0
KFL1 132254Z 31001KT 08/M03 A3028 RMK A01 T00761033  RH  046%=      5-min Rain = 0
KFL1 132255Z 30001KT 08/M03 A3028 RMK A01 T00751028  RH  048%=      5-min Rain = 0
KFL1 132256Z 32001KT 07/M03 A3028 RMK A01 T00741029  RH  048%=      5-min Rain = 0
KFL1 132257Z 31001KT 07/M04 A3028 RMK A01 T00741036  RH  046%=      5-min Rain = 0
KFL1 132258Z 32001KT 07/M04 A3028 RMK A01 T00711036  RH  046%=      5-min Rain = 0
KFL1 132259Z 34001KT 07/M04 A3028 RMK A01 T00701041  RH  045%=      5-min Rain = 0
KFL1 132300Z 34001KT 07/M04 A3028 RMK A01 T00681044  RH  045%=      5-min Rain = 0
KFL1 132301Z 34001KT 07/M05 A3028 RMK A01 T00671045  RH  045%=      5-min Rain = 0
KFL1 132302Z 35001KT 07/M04 A3028 RMK A01 T00661042  RH  046%=      5-min Rain = 0
KFL1 132303Z 35001KT 07/M04 A3028 RMK A01 T00651042  RH  046%=      5-min Rain = 0
KFL1 132304Z 35000KT 06/M04 A3028 RMK A01 T00641040  RH  047%=      5-min Rain = 0
KFL1 132305Z 00000KT 06/M04 A3028 RMK A01 T00631042  RH  047%=      5-min Rain = 0
KFL1 132306Z 00000KT 06/M04 A3029 RMK A01 T00621042  RH  047%=      5-min Rain = 0
KFL1 132307Z 02001KT 06/M04 A3029 RMK A01 T00621043  RH  047%=      5-min Rain = 0
KFL1 132308Z 03000KT 06/M04 A3029 RMK A01 T00621043  RH  047%=      5-min Rain = 0
KFL1 132309Z 28001KT 06/M04 A3029 RMK A01 T00621043  RH  047%=      5-min Rain = 0
KFL1 132310Z 30000KT 06/M04 A3029 RMK A01 T00621040  RH  048%=      5-min Rain = 0
KFL1 132311Z 30000KT 06/M04 A3029 RMK A01 T00631038  RH  048%=      5-min Rain = 0
KFL1 132312Z 32000KT 06/M04 A3029 RMK A01 T00641037  RH  049%=      5-min Rain = 0
KFL1 132313Z 32001KT 07/M04 A3029 RMK A01 T00651035  RH  049%=      5-min Rain = 0
KFL1 132314Z 34001KT 06/M04 A3029 RMK A01 T00631037  RH  049%=      5-min Rain = 0
KFL1 132315Z 35000KT 06/M04 A3029 RMK A01 T00601037  RH  050%=      5-min Rain = 0
KFL1 132316Z 00000KT 06/M04 A3029 RMK A01 T00601039  RH  049%=      5-min Rain = 0
KFL1 132317Z 00000KT 06/M04 A3029 RMK A01 T00601039  RH  049%=      5-min Rain = 0
KFL1 132318Z 35000KT 06/M04 A3028 RMK A01 T00601040  RH  049%=      5-min Rain = 0
KFL1 132319Z 12001KT 06/M04 A3028 RMK A01 T00611039  RH  049%=      5-min Rain = 0
KFL1 132320Z 11002KT 06/M04 A3028 RMK A01 T00611037  RH  049%=      5-min Rain = 0
KFL1 132321Z 12003KT 06/M03 A3028 RMK A01 T00601032  RH  052%=      5-min Rain = 0
KFL1 132322Z 13002KT 06/M03 A3028 RMK A01 T00621027  RH  053%=      5-min Rain = 0
KFL1 132323Z 16002KT 06/M03 A3029 RMK A01 T00611027  RH  053%=      5-min Rain = 0
KFL1 132324Z 16002KT 06/M03 A3029 RMK A01 T00611034  RH  050%=      5-min Rain = 0
KFL1 132325Z 15002KT 06/M04 A3029 RMK A01 T00621038  RH  049%=      5-min Rain = 0
KFL1 132326Z 15002KT 06/M04 A3029 RMK A01 T00631038  RH  048%=      5-min Rain = 0
KFL1 132327Z 14002KT 06/M04 A3029 RMK A01 T00631038  RH  049%=      5-min Rain = 0
KFL1 132328Z 12002KT 06/M04 A3029 RMK A01 T00621035  RH  050%=      5-min Rain = 0
KFL1 132329Z 10001KT 06/M04 A3029 RMK A01 T00621038  RH  049%=      5-min Rain = 0
KFL1 132330Z 11001KT 06/M04 A3029 RMK A01 T00611039  RH  049%=      5-min Rain = 0
KFL1 132331Z 12000KT 06/M04 A3029 RMK A01 T00601040  RH  049%=      5-min Rain = 0
KFL1 132332Z 17000KT 06/M03 A3029 RMK A01 T00611034  RH  051%=      5-min Rain = 0
KFL1 132333Z 15000KT 06/M03 A3029 RMK A01 T00591033  RH  052%=      5-min Rain = 0
KFL1 132334Z 18000KT 06/M03 A3029 RMK A01 T00581034  RH  051%=      5-min Rain = 0
KFL1 132335Z 21000KT 06/M04 A3029 RMK A01 T00571035  RH  051%=      5-min Rain = 0
KFL1 132336Z 16001KT 06/M04 A3029 RMK A01 T00571036  RH  051%=      5-min Rain = 0
KFL1 132337Z 16001KT 06/M03 A3029 RMK A01 T00581034  RH  051%=      5-min Rain = 0
KFL1 132338Z 16001KT 06/M03 A3029 RMK A01 T00591033  RH  052%=      5-min Rain = 0
KFL1 132339Z 16001KT 06/M03 A3029 RMK A01 T00581032  RH  052%=      5-min Rain = 0
KFL1 132340Z 16001KT 06/M03 A3029 RMK A01 T00581033  RH  052%=      5-min Rain = 0
KFL1 132341Z 16001KT 06/M04 A3029 RMK A01 T00581035  RH  051%=      5-min Rain = 0
KFL1 132342Z 16000KT 06/M04 A3029 RMK A01 T00601036  RH  050%=      5-min Rain = 0
KFL1 132343Z 17001KT 06/M04 A3029 RMK A01 T00611038  RH  049%=      5-min Rain = 0
KFL1 132344Z 16001KT 06/M04 A3029 RMK A01 T00611037  RH  049%=      5-min Rain = 0
KFL1 132345Z 15001KT 06/M04 A3029 RMK A01 T00601038  RH  049%=      5-min Rain = 0
KFL1 132346Z 15001KT 06/M04 A3029 RMK A01 T00601039  RH  049%=      5-min Rain = 0
KFL1 132347Z 15001KT 06/M04 A3029 RMK A01 T00601037  RH  050%=      5-min Rain = 0
KFL1 132348Z 16001KT 06/M03 A3029 RMK A01 T00591034  RH  051%=      5-min Rain = 0
KFL1 132349Z 19001KT 06/M03 A3029 RMK A01 T00581031  RH  052%=      5-min Rain = 0
KFL1 132350Z 22000KT 06/M03 A3029 RMK A01 T00581029  RH  054%=      5-min Rain = 0
KFL1 132351Z 23001KT 06/M03 A3029 RMK A01 T00571033  RH  053%=      5-min Rain = 0
KFL1 132352Z 23000KT 06/M03 A3029 RMK A01 T00561034  RH  052%=      5-min Rain = 0
KFL1 132353Z 00000KT 06/M03 A3029 RMK A01 T00571034  RH  052%=      5-min Rain = 0
KFL1 132354Z 00000KT 06/M04 A3029 RMK A01 T00551037  RH  052%=      5-min Rain = 0
KFL1 132355Z 00000KT 05/M04 A3029 RMK A01 T00531038  RH  052%=      5-min Rain = 0
KFL1 132356Z 00000KT 05/M04 A3029 RMK A01 T00521038  RH  052%=      5-min Rain = 0
KFL1 132357Z 00000KT 05/M04 A3029 RMK A01 T00521036  RH  053%=      5-min Rain = 0
KFL1 132358Z 00000KT 05/M04 A3029 RMK A01 T00511037  RH  053%=      5-min Rain = 0
KFL1 132359Z 00000KT 05/M04 A3029 RMK A01 T00501037  RH  053%=      5-min Rain = 0
KFL1 140000Z 00000KT 05/M04 A3029 RMK A01 T00501037  RH  053%=      5-min Rain = 0
KFL1 140001Z 00000KT 05/M04 A3029 RMK A01 T00491038  RH  053%=      5-min Rain = 0
KFL1 140002Z 00000KT 05/M04 A3029 RMK A01 T00481038  RH  054%=      5-min Rain = 0
KFL1 140003Z 00000KT 05/M04 A3029 RMK A01 T00501035  RH  054%=      5-min Rain = 0
KFL1 140004Z 07001KT 05/M04 A3029 RMK A01 T00491036  RH  054%=      5-min Rain = 0
KFL1 140005Z 07001KT 05/M04 A3029 RMK A01 T00491036  RH  054%=      5-min Rain = 0
KFL1 140006Z 07001KT 05/M04 A3029 RMK A01 T00491035  RH  054%=      5-min Rain = 0
KFL1 140007Z 07001KT 05/M04 A3029 RMK A01 T00481036  RH  054%=      5-min Rain = 0
KFL1 140008Z 08001KT 05/M04 A3029 RMK A01 T00491035  RH  055%=      5-min Rain = 0
KFL1 140009Z 08002KT 05/M04 A3029 RMK A01 T00481035  RH  055%=      5-min Rain = 0
KFL1 140010Z 08002KT 05/M03 A3029 RMK A01 T00491033  RH  055%=      5-min Rain = 0
KFL1 140011Z 07002KT 05/M03 A3029 RMK A01 T00491031  RH  056%=      5-min Rain = 0
KFL1 140012Z 08002KT 05/M03 A3029 RMK A01 T00471032  RH  056%=      5-min Rain = 0
KFL1 140013Z 07002KT 05/M03 A3029 RMK A01 T00471031  RH  057%=      5-min Rain = 0
KFL1 140014Z 06002KT 05/M03 A3029 RMK A01 T00471032  RH  057%=      5-min Rain = 0
KFL1 140015Z 06002KT 05/M03 A3029 RMK A01 T00471032  RH  057%=      5-min Rain = 0
KFL1 140016Z 06003KT 05/M03 A3029 RMK A01 T00461032  RH  057%=      5-min Rain = 0
KFL1 140017Z 06003KT 05/M03 A3029 RMK A01 T00461031  RH  057%=      5-min Rain = 0
KFL1 140018Z 06003KT 05/M03 A3029 RMK A01 T00451031  RH  058%=      5-min Rain = 0
KFL1 140019Z 06003KT 04/M03 A3029 RMK A01 T00431031  RH  058%=      5-min Rain = 0
KFL1 140020Z 06002KT 04/M03 A3029 RMK A01 T00441029  RH  059%=      5-min Rain = 0
KFL1 140021Z 07003KT 04/M03 A3029 RMK A01 T00441029  RH  059%=      5-min Rain = 0
KFL1 140022Z 08003KT 04/M03 A3029 RMK A01 T00431030  RH  059%=      5-min Rain = 0
KFL1 140023Z 07003KT 04/M03 A3029 RMK A01 T00431029  RH  059%=      5-min Rain = 0
KFL1 140024Z 08003KT 04/M03 A3029 RMK A01 T00421030  RH  059%=      5-min Rain = 0
KFL1 140025Z 08003KT 04/M03 A3029 RMK A01 T00421030  RH  059%=      5-min Rain = 0
KFL1 140026Z 08003KT 04/M03 A3029 RMK A01 T00421029  RH  060%=      5-min Rain = 0
KFL1 140027Z 08003KT 04/M03 A3029 RMK A01 T00421029  RH  060%=      5-min Rain = 0
KFL1 140028Z 09003KT 04/M03 A3029 RMK A01 T00401029  RH  061%=      5-min Rain = 0
KFL1 140029Z 08002KT 04/M03 A3029 RMK A01 T00411027  RH  061%=      5-min Rain = 0
KFL1 140030Z 07002KT 04/M03 A303 RMK A01 T00411028  RH  061%=      5-min Rain = 0
KFL1 140031Z 07003KT 04/M03 A303 RMK A01 T00411027  RH  061%=      5-min Rain = 0
KFL1 140032Z 07003KT 04/M03 A303 RMK A01 T00411025  RH  062%=      5-min Rain = 0
KFL1 140033Z 07003KT 04/M03 A303 RMK A01 T00391025  RH  063%=      5-min Rain = 0
KFL1 140034Z 07003KT 04/M02 A303 RMK A01 T00401024  RH  063%=      5-min Rain = 0
KFL1 140035Z 07003KT 04/M02 A303 RMK A01 T00381024  RH  064%=      5-min Rain = 0
KFL1 140036Z 08003KT 04/M02 A303 RMK A01 T00381023  RH  064%=      5-min Rain = 0
KFL1 140037Z 08003KT 04/M02 A303 RMK A01 T00371023  RH  065%=      5-min Rain = 0
KFL1 140038Z 07003KT 04/M02 A303 RMK A01 T00361023  RH  065%=      5-min Rain = 0
KFL1 140039Z 08003KT 04/M02 A303 RMK A01 T00371022  RH  065%=      5-min Rain = 0
KFL1 140040Z 08003KT 04/M02 A303 RMK A01 T00361022  RH  066%=      5-min Rain = 0
KFL1 140041Z 08003KT 04/M02 A303 RMK A01 T00361021  RH  066%=      5-min Rain = 0
KFL1 140042Z 08003KT 04/M02 A303 RMK A01 T00351021  RH  067%=      5-min Rain = 0
KFL1 140043Z 07003KT 03/M02 A303 RMK A01 T00341022  RH  067%=      5-min Rain = 0
KFL1 140044Z 07003KT 03/M02 A303 RMK A01 T00341021  RH  067%=      5-min Rain = 0
KFL1 140045Z 07003KT 03/M02 A303 RMK A01 T00341021  RH  067%=      5-min Rain = 0
KFL1 140046Z 07003KT 03/M02 A303 RMK A01 T00341021  RH  067%=      5-min Rain = 0
KFL1 140047Z 07003KT 03/M02 A303 RMK A01 T00341021  RH  067%=      5-min Rain = 0
KFL1 140048Z 07003KT 03/M02 A303 RMK A01 T00331021  RH  067%=      5-min Rain = 0
KFL1 140049Z 07003KT 03/M02 A303 RMK A01 T00341021  RH  067%=      5-min Rain = 0
KFL1 140050Z 07003KT 03/M02 A303 RMK A01 T00331022  RH  067%=      5-min Rain = 0
KFL1 140051Z 07003KT 03/M02 A303 RMK A01 T00331022  RH  067%=      5-min Rain = 0
KFL1 140052Z 07004KT 03/M02 A303 RMK A01 T00321022  RH  068%=      5-min Rain = 0
KFL1 140053Z 08004KT 03/M02 A303 RMK A01 T00321022  RH  068%=      5-min Rain = 0
KFL1 140054Z 07003KT 03/M02 A303 RMK A01 T00311022  RH  068%=      5-min Rain = 0
KFL1 140055Z 07003KT 03/M02 A303 RMK A01 T00311022  RH  068%=      5-min Rain = 0
KFL1 140056Z 07003KT 03/M02 A3031 RMK A01 T00311022  RH  068%=      5-min Rain = 0
KFL1 140057Z 07003KT 03/M02 A3031 RMK A01 T00301022  RH  069%=      5-min Rain = 0
KFL1 140058Z 07003KT 03/M02 A3031 RMK A01 T00301021  RH  069%=      5-min Rain = 0
KFL1 140059Z 06003KT 03/M02 A3031 RMK A01 T00291021  RH  069%=      5-min Rain = 0
KFL1 140100Z 06003KT 03/M02 A3031 RMK A01 T00301020  RH  070%=      5-min Rain = 0
KFL1 140101Z 07003KT 03/M02 A3031 RMK A01 T00301020  RH  070%=      5-min Rain = 0
KFL1 140102Z 06004KT 03/M02 A3031 RMK A01 T00281022  RH  069%=      5-min Rain = 0
KFL1 140103Z 06003KT 03/M02 A3031 RMK A01 T00301021  RH  069%=      5-min Rain = 0
KFL1 140104Z 06004KT 03/M02 A3031 RMK A01 T00291021  RH  069%=      5-min Rain = 0
KFL1 140105Z 06004KT 03/M02 A303 RMK A01 T00281023  RH  069%=      5-min Rain = 0
KFL1 140106Z 06004KT 03/M02 A303 RMK A01 T00291024  RH  068%=      5-min Rain = 0
KFL1 140107Z 06004KT 03/M03 A303 RMK A01 T00291025  RH  068%=      5-min Rain = 0
KFL1 140108Z 06004KT 03/M03 A303 RMK A01 T00301025  RH  067%=      5-min Rain = 0
KFL1 140109Z 06004KT 03/M03 A303 RMK A01 T00301025  RH  067%=      5-min Rain = 0
KFL1 140110Z 06004KT 03/M03 A303 RMK A01 T00301025  RH  067%=      5-min Rain = 0
KFL1 140111Z 05004KT 03/M03 A303 RMK A01 T00301025  RH  067%=      5-min Rain = 0
KFL1 140112Z 05005KT 03/M03 A303 RMK A01 T00291025  RH  067%=      5-min Rain = 0
KFL1 140113Z 05005KT 03/M02 A303 RMK A01 T00301024  RH  068%=      5-min Rain = 0
KFL1 140114Z 06005KT 03/M03 A303 RMK A01 T00291025  RH  068%=      5-min Rain = 0
KFL1 140115Z 06006KT 03/M02 A303 RMK A01 T00291024  RH  068%=      5-min Rain = 0
KFL1 140116Z 05005KT 03/M02 A303 RMK A01 T00281024  RH  068%=      5-min Rain = 0
KFL1 140117Z 05005KT 03/M03 A303 RMK A01 T00271025  RH  069%=      5-min Rain = 0
KFL1 140118Z 06005KT 03/M03 A303 RMK A01 T00271025  RH  069%=      5-min Rain = 0
KFL1 140119Z 05005KT 03/M02 A303 RMK A01 T00281024  RH  069%=      5-min Rain = 0
KFL1 140120Z 06005KT 03/M02 A303 RMK A01 T00271024  RH  069%=      5-min Rain = 0
KFL1 140121Z 06005KT 03/M03 A303 RMK A01 T00261025  RH  069%=      5-min Rain = 0
KFL1 140122Z 05005KT 03/M03 A303 RMK A01 T00271025  RH  069%=      5-min Rain = 0
KFL1 140123Z 05005KT 03/M03 A303 RMK A01 T00271025  RH  068%=      5-min Rain = 0
KFL1 140124Z 05005KT 03/M03 A303 RMK A01 T00281025  RH  068%=      5-min Rain = 0
KFL1 140125Z 05005KT 03/M03 A303 RMK A01 T00271027  RH  068%=      5-min Rain = 0
KFL1 140126Z 05005KT 03/M03 A303 RMK A01 T00271027  RH  067%=      5-min Rain = 0
KFL1 140127Z 05005KT 03/M03 A303 RMK A01 T00281028  RH  067%=      5-min Rain = 0
KFL1 140128Z 05005KT 03/M03 A303 RMK A01 T00271029  RH  066%=      5-min Rain = 0
KFL1 140129Z 05005KT 03/M03 A303 RMK A01 T00291028  RH  066%=      5-min Rain = 0
KFL1 140130Z 05005KT 03/M03 A303 RMK A01 T00281029  RH  066%=      5-min Rain = 0
KFL1 140131Z 05004KT 03/M03 A303 RMK A01 T00291028  RH  066%=      5-min Rain = 0
KFL1 140132Z 05005KT 03/M03 A303 RMK A01 T00281029  RH  066%=      5-min Rain = 0
KFL1 140133Z 05005KT 03/M03 A303 RMK A01 T00281029  RH  066%=      5-min Rain = 0
KFL1 140134Z 05005KT 03/M03 A303 RMK A01 T00281029  RH  066%=      5-min Rain = 0
KFL1 140135Z 05005KT 03/M03 A303 RMK A01 T00271029  RH  067%=      5-min Rain = 0
KFL1 140136Z 05005KT 03/M03 A303 RMK A01 T00271029  RH  067%=      5-min Rain = 0
KFL1 140137Z 05005KT 03/M03 A303 RMK A01 T00261028  RH  067%=      5-min Rain = 0
KFL1 140138Z 05005KT 03/M03 A303 RMK A01 T00261028  RH  067%=      5-min Rain = 0
KFL1 140139Z 05005KT 03/M03 A3031 RMK A01 T00261028  RH  068%=      5-min Rain = 0
KFL1 140140Z 05005KT 03/M03 A3031 RMK A01 T00251029  RH  068%=      5-min Rain = 0
KFL1 140141Z 05005KT 03/M03 A3031 RMK A01 T00261027  RH  068%=      5-min Rain = 0
KFL1 140142Z 05005KT 03/M03 A3031 RMK A01 T00251029  RH  068%=      5-min Rain = 0
KFL1 140143Z 04004KT 03/M03 A3031 RMK A01 T00261028  RH  068%=      5-min Rain = 0
KFL1 140144Z 04004KT 02/M03 A3031 RMK A01 T00241029  RH  068%=      5-min Rain = 0
KFL1 140145Z 04005KT 02/M03 A3031 RMK A01 T00241030  RH  068%=      5-min Rain = 0
KFL1 140146Z 04005KT 02/M03 A3031 RMK A01 T00241029  RH  068%=      5-min Rain = 0
KFL1 140147Z 04005KT 03/M03 A3031 RMK A01 T00251029  RH  068%=      5-min Rain = 0
KFL1 140148Z 04005KT 03/M03 A3031 RMK A01 T00251029  RH  068%=      5-min Rain = 0
KFL1 140149Z 04005KT 03/M03 A3031 RMK A01 T00251029  RH  068%=      5-min Rain = 0
KFL1 140150Z 04005KT 03/M03 A3031 RMK A01 T00251029  RH  067%=      5-min Rain = 0
KFL1 140151Z 04005KT 03/M03 A3031 RMK A01 T00261029  RH  067%=      5-min Rain = 0
KFL1 140152Z 04005KT 03/M03 A3031 RMK A01 T00261028  RH  067%=      5-min Rain = 0
KFL1 140153Z 04004KT 03/M03 A3031 RMK A01 T00261028  RH  068%=      5-min Rain = 0
KFL1 140154Z 04004KT 03/M03 A3031 RMK A01 T00251028  RH  068%=      5-min Rain = 0
KFL1 140155Z 04004KT 03/M03 A3031 RMK A01 T00251028  RH  068%=      5-min Rain = 0
KFL1 140156Z 04004KT 02/M03 A3031 RMK A01 T00241029  RH  068%=      5-min Rain = 0
KFL1 140157Z 04005KT 02/M03 A3031 RMK A01 T00241029  RH  068%=      5-min Rain = 0
KFL1 140158Z 05004KT 02/M03 A3031 RMK A01 T00241029  RH  068%=      5-min Rain = 0
KFL1 140159Z 04005KT 02/M03 A3031 RMK A01 T00241029  RH  068%=      5-min Rain = 0
KFL1 140200Z 04005KT 02/M03 A3031 RMK A01 T00241029  RH  068%=      5-min Rain = 0
KFL1 140201Z 05005KT 02/M03 A3031 RMK A01 T00241029  RH  068%=      5-min Rain = 0
KFL1 140202Z 04005KT 02/M03 A3031 RMK A01 T00241028  RH  068%=      5-min Rain = 0
KFL1 140203Z 04005KT 02/M03 A3031 RMK A01 T00241029  RH  068%=      5-min Rain = 0
KFL1 140204Z 04005KT 02/M03 A3031 RMK A01 T00231030  RH  068%=      5-min Rain = 0
KFL1 140205Z 04005KT 02/M03 A3031 RMK A01 T00231029  RH  068%=      5-min Rain = 0
KFL1 140206Z 03005KT 02/M03 A3031 RMK A01 T00231030  RH  068%=      5-min Rain = 0
KFL1 140207Z 04005KT 02/M03 A3031 RMK A01 T00211032  RH  068%=      5-min Rain = 0
KFL1 140208Z 04005KT 02/M03 A3032 RMK A01 T00191034  RH  068%=      5-min Rain = 0
KFL1 140209Z 04005KT 02/M04 A3031 RMK A01 T00161035  RH  069%=      5-min Rain = 0
KFL1 140210Z 03005KT 01/M04 A3031 RMK A01 T00131035  RH  070%=      5-min Rain = 0
KFL1 140211Z 03006KT 01/M04 A3031 RMK A01 T00091036  RH  072%=      5-min Rain = 0
KFL1 140212Z 04006KT 01/M04 A3031 RMK A01 T00091035  RH  073%=      5-min Rain = 0
KFL1 140213Z 04006KT 01/M03 A3031 RMK A01 T00091034  RH  073%=      5-min Rain = 0
KFL1 140214Z 04006KT 01/M03 A3031 RMK A01 T00101034  RH  072%=      5-min Rain = 0
KFL1 140215Z 04006KT 01/M03 A3031 RMK A01 T00111034  RH  072%=      5-min Rain = 0
KFL1 140216Z 03006KT 01/M03 A3031 RMK A01 T00121034  RH  071%=      5-min Rain = 0
KFL1 140217Z 03005KT 01/M04 A3031 RMK A01 T00121035  RH  071%=      5-min Rain = 0
KFL1 140218Z 04005KT 01/M03 A3031 RMK A01 T00131034  RH  071%=      5-min Rain = 0
KFL1 140219Z 04006KT 01/M04 A3031 RMK A01 T00131035  RH  071%=      5-min Rain = 0
KFL1 140220Z 04006KT 01/M04 A3031 RMK A01 T00121035  RH  070%=      5-min Rain = 0
KFL1 140221Z 03005KT 01/M03 A3031 RMK A01 T00141034  RH  070%=      5-min Rain = 0
KFL1 140222Z 03005KT 01/M04 A3031 RMK A01 T00131035  RH  070%=      5-min Rain = 0
KFL1 140223Z 03006KT 01/M04 A3031 RMK A01 T00141035  RH  070%=      5-min Rain = 0
KFL1 140224Z 03006KT 01/M04 A3031 RMK A01 T00131035  RH  070%=      5-min Rain = 0
KFL1 140225Z 03006KT 01/M04 A3031 RMK A01 T00111036  RH  071%=      5-min Rain = 0
KFL1 140226Z 03006KT 01/M04 A3031 RMK A01 T00091037  RH  071%=      5-min Rain = 0
KFL1 140227Z 03006KT 01/M04 A3031 RMK A01 T00091036  RH  072%=      5-min Rain = 0
KFL1 140228Z 03006KT 01/M04 A3031 RMK A01 T00091036  RH  072%=      5-min Rain = 0
KFL1 140229Z 04005KT 01/M04 A3031 RMK A01 T00081036  RH  072%=      5-min Rain = 0
KFL1 140230Z 04005KT 01/M04 A3031 RMK A01 T00101035  RH  072%=      5-min Rain = 0
KFL1 140231Z 04005KT 01/M04 A3031 RMK A01 T00101035  RH  072%=      5-min Rain = 0
KFL1 140232Z 04005KT 01/M04 A3031 RMK A01 T00101035  RH  072%=      5-min Rain = 0
KFL1 140233Z 04005KT 01/M04 A3031 RMK A01 T00101035  RH  072%=      5-min Rain = 0
KFL1 140234Z 04005KT 01/M04 A3031 RMK A01 T00081035  RH  073%=      5-min Rain = 0
KFL1 140235Z 04005KT 01/M03 A3032 RMK A01 T00091034  RH  073%=      5-min Rain = 0
KFL1 140236Z 04006KT 01/M03 A3032 RMK A01 T00081034  RH  074%=      5-min Rain = 0
KFL1 140237Z 03006KT 01/M03 A3032 RMK A01 T00061034  RH  074%=      5-min Rain = 0
KFL1 140238Z 03006KT 01/M04 A3032 RMK A01 T00051035  RH  074%=      5-min Rain = 0
KFL1 140239Z 03006KT 01/M03 A3032 RMK A01 T00061034  RH  075%=      5-min Rain = 0
KFL1 140240Z 03006KT 01/M04 A3032 RMK A01 T00051035  RH  074%=      5-min Rain = 0
KFL1 140241Z 03006KT 01/M04 A3032 RMK A01 T00061035  RH  074%=      5-min Rain = 0
KFL1 140242Z 03006KT 01/M03 A3032 RMK A01 T00071034  RH  074%=      5-min Rain = 0
KFL1 140243Z 03006KT 01/M03 A3032 RMK A01 T00071034  RH  074%=      5-min Rain = 0
KFL1 140244Z 03006KT 01/M04 A3032 RMK A01 T00061036  RH  073%=      5-min Rain = 0
KFL1 140245Z 03006KT 01/M04 A3032 RMK A01 T00061037  RH  073%=      5-min Rain = 0
KFL1 140246Z 03006KT 00/M04 A3032 RMK A01 T00031040  RH  073%=      5-min Rain = 0
KFL1 140247Z 03006KT 00/04 A3032 RMK A01 T00000-42  RH  073%=      5-min Rain = 0
KFL1 140248Z 03006KT M00/M04 A3032 RMK A01 T10011042  RH  074%=      5-min Rain = 0
KFL1 140249Z 03005KT M00/M04 A3032 RMK A01 T10031042  RH  075%=      5-min Rain = 0
KFL1 140250Z 03006KT M00/M04 A3032 RMK A01 T10021040  RH  075%=      5-min Rain = 0
KFL1 140251Z 03005KT M00/M04 A3032 RMK A01 T10011039  RH  076%=      5-min Rain = 0
KFL1 140252Z 03005KT M00/M04 A3032 RMK A01 T10011040  RH  075%=      5-min Rain = 0
KFL1 140253Z 03006KT M00/M04 A3032 RMK A01 T10011040  RH  075%=      5-min Rain = 0
KFL1 140254Z 03006KT M00/M04 A3032 RMK A01 T10021041  RH  074%=      5-min Rain = 0
KFL1 140255Z 03007KT M00/M04 A3032 RMK A01 T10041043  RH  075%=      5-min Rain = 0
KFL1 140256Z 02008KT M01/M04 A3032 RMK A01 T10061044  RH  076%=      5-min Rain = 0
KFL1 140257Z 02009KT M01/M04 A3032 RMK A01 T10081044  RH  077%=      5-min Rain = 0
KFL1 140258Z 02009KT M01/M04 A3032 RMK A01 T10091043  RH  078%=      5-min Rain = 0
KFL1 140259Z 02009KT M01/M04 A3032 RMK A01 T10101043  RH  078%=      5-min Rain = 0
KFL1 140300Z 02009KT M01/M04 A3032 RMK A01 T10101043  RH  079%=      5-min Rain = 0
KFL1 140301Z 02009KT M01/M04 A3032 RMK A01 T10111043  RH  079%=      5-min Rain = 0
KFL1 140302Z 03009KT M01/M04 A3032 RMK A01 T10101042  RH  079%=      5-min Rain = 0
KFL1 140303Z 03008KT M00/M04 A3032 RMK A01 T10041038  RH  078%=      5-min Rain = 0
KFL1 140304Z 03006KT 00/04 A3032 RMK A01 T00-00-37  RH  077%=      5-min Rain = 0
KFL1 140305Z 04004KT 00/M04 A3032 RMK A01 T00021036  RH  075%=      5-min Rain = 0
KFL1 140306Z 04006KT 00/M04 A3032 RMK A01 T00021037  RH  075%=      5-min Rain = 0
KFL1 140307Z 04006KT 00/M04 A3032 RMK A01 T00021037  RH  075%=      5-min Rain = 0
KFL1 140308Z 04006KT 00/M04 A3032 RMK A01 T00011038  RH  075%=      5-min Rain = 0
KFL1 140309Z 04006KT M00/M04 A3032 RMK A01 T10011038  RH  076%=      5-min Rain = 0
KFL1 140310Z 04007KT M00/M04 A3032 RMK A01 T10021036  RH  077%=      5-min Rain = 0
KFL1 140311Z 05007KT M00/M04 A3032 RMK A01 T10041037  RH  078%=      5-min Rain = 0
KFL1 140312Z 05008KT M01/M04 A3032 RMK A01 T10061037  RH  079%=      5-min Rain = 0
KFL1 140313Z 05008KT M01/M04 A3032 RMK A01 T10061037  RH  080%=      5-min Rain = 0
KFL1 140314Z 04009KT M01/M04 A3032 RMK A01 T10071037  RH  080%=      5-min Rain = 0
KFL1 140315Z 04010KT M01/M04 A3032 RMK A01 T10071036  RH  081%=      5-min Rain = 0
KFL1 140316Z 04009KT M01/M03 A3032 RMK A01 T10051034  RH  081%=      5-min Rain = 0
KFL1 140317Z 04009KT M00/M03 A3032 RMK A01 T10031033  RH  080%=      5-min Rain = 0
KFL1 140318Z 04009KT M00/M03 A3032 RMK A01 T10031034  RH  079%=      5-min Rain = 0
KFL1 140319Z 04009KT M00/M04 A3032 RMK A01 T10041036  RH  079%=      5-min Rain = 0
KFL1 140320Z 04009KT M00/M03 A3032 RMK A01 T10021034  RH  079%=      5-min Rain = 0
KFL1 140321Z 04008KT M00/M03 A3032 RMK A01 T10011034  RH  078%=      5-min Rain = 0
KFL1 140322Z 04008KT M00/M04 A3032 RMK A01 T10011035  RH  078%=      5-min Rain = 0
KFL1 140323Z 04007KT 00/03 A3032 RMK A01 T00000-33  RH  078%=      5-min Rain = 0
KFL1 140324Z 04008KT M00/M04 A3032 RMK A01 T10021036  RH  078%=      5-min Rain = 0
KFL1 140325Z 04008KT M00/M04 A3032 RMK A01 T10021036  RH  078%=      5-min Rain = 0
KFL1 140326Z 04008KT M00/M04 A3032 RMK A01 T10011036  RH  078%=      5-min Rain = 0
KFL1 140327Z 04008KT M00/M04 A3032 RMK A01 T10011036  RH  077%=      5-min Rain = 0
KFL1 140328Z 04008KT 00/04 A3032 RMK A01 T00-00-36  RH  077%=      5-min Rain = 0
KFL1 140329Z 04008KT M00/M04 A3032 RMK A01 T10011036  RH  077%=      5-min Rain = 0
KFL1 140330Z 04008KT M00/M04 A3032 RMK A01 T10011037  RH  077%=      5-min Rain = 0
KFL1 140331Z 04008KT M00/M04 A3032 RMK A01 T10011036  RH  077%=      5-min Rain = 0
KFL1 140332Z 04008KT M00/M04 A3032 RMK A01 T10021038  RH  077%=      5-min Rain = 0
KFL1 140333Z 03007KT M00/M04 A3032 RMK A01 T10011038  RH  076%=      5-min Rain = 0
KFL1 140334Z 03007KT 00/M04 A3032 RMK A01 T00011036  RH  076%=      5-min Rain = 0
KFL1 140335Z 03007KT 00/M04 A3032 RMK A01 T00021036  RH  076%=      5-min Rain = 0
KFL1 140336Z 02009KT 00/04 A3032 RMK A01 T00000-39  RH  075%=      5-min Rain = 0
KFL1 140337Z 02009KT M00/M04 A3032 RMK A01 T10011041  RH  074%=      5-min Rain = 0
KFL1 140338Z 02009KT M00/M04 A3032 RMK A01 T10031042  RH  075%=      5-min Rain = 0
KFL1 140339Z 02009KT M01/M04 A3032 RMK A01 T10051044  RH  075%=      5-min Rain = 0
KFL1 140340Z 03009KT M01/M04 A3032 RMK A01 T10061044  RH  076%=      5-min Rain = 0
KFL1 140341Z 03009KT M01/M04 A3032 RMK A01 T10071043  RH  076%=      5-min Rain = 0
KFL1 140342Z 03007KT M00/M04 A3032 RMK A01 T10041041  RH  076%=      5-min Rain = 0
KFL1 140343Z 04006KT M00/M04 A3032 RMK A01 T10031041  RH  075%=      5-min Rain = 0
KFL1 140344Z 03005KT M00/M04 A3032 RMK A01 T10011040  RH  075%=      5-min Rain = 0
KFL1 140345Z 04006KT 00/04 A3032 RMK A01 T00000-40  RH  074%=      5-min Rain = 0
KFL1 140346Z 04006KT M00/M04 A3032 RMK A01 T10011042  RH  074%=      5-min Rain = 0
KFL1 140347Z 04006KT M00/M04 A3032 RMK A01 T10011041  RH  075%=      5-min Rain = 0
KFL1 140348Z 04006KT M00/M04 A3032 RMK A01 T10031041  RH  075%=      5-min Rain = 0
KFL1 140349Z 03006KT M00/M04 A3032 RMK A01 T10031041  RH  076%=      5-min Rain = 0
KFL1 140350Z 04006KT M00/M04 A3032 RMK A01 T10041041  RH  076%=      5-min Rain = 0
KFL1 140351Z 04007KT M01/M04 A3032 RMK A01 T10051042  RH  076%=      5-min Rain = 0
KFL1 140352Z 04006KT M00/M04 A3032 RMK A01 T10031040  RH  076%=      5-min Rain = 0
KFL1 140353Z 04007KT M01/M04 A3032 RMK A01 T10051042  RH  076%=      5-min Rain = 0
KFL1 140354Z 04007KT M01/M04 A3032 RMK A01 T10051042  RH  076%=      5-min Rain = 0
KFL1 140355Z 04008KT M01/M04 A3032 RMK A01 T10051041  RH  076%=      5-min Rain = 0
KFL1 140356Z 04008KT M00/M04 A3032 RMK A01 T10041040  RH  077%=      5-min Rain = 0
KFL1 140357Z 04008KT M01/M04 A3032 RMK A01 T10061042  RH  077%=      5-min Rain = 0
KFL1 140358Z 04008KT M01/M04 A3032 RMK A01 T10061042  RH  077%=      5-min Rain = 0
KFL1 140359Z 04009KT M01/M04 A3032 RMK A01 T10061042  RH  076%=      5-min Rain = 0
KFL1 140400Z 04008KT M01/M04 A3032 RMK A01 T10061042  RH  076%=      5-min Rain = 0
KFL1 140401Z 04008KT M01/M04 A3032 RMK A01 T10051042  RH  076%=      5-min Rain = 0
KFL1 140402Z 04009KT M00/M04 A3032 RMK A01 T10041041  RH  076%=      5-min Rain = 0
KFL1 140403Z 04009KT M01/M04 A3032 RMK A01 T10061043  RH  076%=      5-min Rain = 0
KFL1 140404Z 04009KT M01/M04 A3032 RMK A01 T10051042  RH  076%=      5-min Rain = 0
KFL1 140405Z 04009KT M01/M04 A3032 RMK A01 T10051043  RH  076%=      5-min Rain = 0
KFL1 140406Z 04008KT M00/M04 A3032 RMK A01 T10041042  RH  076%=      5-min Rain = 0
KFL1 140407Z 04008KT M00/M04 A3032 RMK A01 T10041042  RH  075%=      5-min Rain = 0
KFL1 140408Z 03008KT M00/M04 A3032 RMK A01 T10031042  RH  075%=      5-min Rain = 0
KFL1 140409Z 04008KT M00/M04 A3032 RMK A01 T10031043  RH  075%=      5-min Rain = 0
KFL1 140410Z 03008KT M00/M04 A3032 RMK A01 T10041043  RH  075%=      5-min Rain = 0
KFL1 140411Z 03007KT M00/M04 A3032 RMK A01 T10031043  RH  075%=      5-min Rain = 0
KFL1 140412Z 03007KT M00/M04 A3032 RMK A01 T10011042  RH  074%=      5-min Rain = 0
KFL1 140413Z 03008KT M00/M04 A3032 RMK A01 T10011042  RH  074%=      5-min Rain = 0
KFL1 140414Z 03008KT 00/04 A3032 RMK A01 T00000-42  RH  073%=      5-min Rain = 0
KFL1 140415Z 03007KT M00/M05 A3032 RMK A01 T10021045  RH  073%=      5-min Rain = 0
KFL1 140416Z 03007KT M00/M05 A3032 RMK A01 T10041046  RH  073%=      5-min Rain = 0
KFL1 140417Z 03007KT M00/M05 A3032 RMK A01 T10041046  RH  073%=      5-min Rain = 0
KFL1 140418Z 03006KT M00/M05 A3032 RMK A01 T10041046  RH  074%=      5-min Rain = 0
KFL1 140419Z 03005KT M00/M04 A3032 RMK A01 T10031044  RH  074%=      5-min Rain = 0
KFL1 140420Z 03006KT M00/M04 A3032 RMK A01 T10021043  RH  074%=      5-min Rain = 0
KFL1 140421Z 03006KT M00/M05 A3032 RMK A01 T10041045  RH  074%=      5-min Rain = 0
KFL1 140422Z 03006KT M00/M05 A3032 RMK A01 T10031045  RH  074%=      5-min Rain = 0
KFL1 140423Z 03006KT M00/M05 A3032 RMK A01 T10031045  RH  074%=      5-min Rain = 0
KFL1 140424Z 03006KT M00/M05 A3032 RMK A01 T10031045  RH  074%=      5-min Rain = 0
KFL1 140425Z 03006KT M00/M04 A3032 RMK A01 T10031044  RH  074%=      5-min Rain = 0
KFL1 140426Z 03006KT M00/M05 A3032 RMK A01 T10041046  RH  073%=      5-min Rain = 0
KFL1 140427Z 03006KT M00/M05 A3032 RMK A01 T10041046  RH  073%=      5-min Rain = 0
KFL1 140428Z 03006KT M00/M05 A3032 RMK A01 T10041046  RH  073%=      5-min Rain = 0
KFL1 140429Z 03006KT M00/M05 A3032 RMK A01 T10031046  RH  073%=      5-min Rain = 0
KFL1 140430Z 03007KT M00/M05 A3032 RMK A01 T10021045  RH  073%=      5-min Rain = 0
KFL1 140431Z 03006KT M00/M05 A3032 RMK A01 T10041046  RH  073%=      5-min Rain = 0
KFL1 140432Z 03006KT M01/M05 A3032 RMK A01 T10051046  RH  073%=      5-min Rain = 0
KFL1 140433Z 04006KT M00/M05 A3032 RMK A01 T10041045  RH  074%=      5-min Rain = 0
KFL1 140434Z 03006KT M01/M05 A3032 RMK A01 T10051046  RH  074%=      5-min Rain = 0
KFL1 140435Z 04006KT M01/M05 A3032 RMK A01 T10061047  RH  074%=      5-min Rain = 0
KFL1 140436Z 04007KT M01/M05 A3032 RMK A01 T10071047  RH  074%=      5-min Rain = 0
KFL1 140437Z 04007KT M01/M05 A3032 RMK A01 T10071047  RH  074%=      5-min Rain = 0
KFL1 140438Z 04007KT M01/M05 A3032 RMK A01 T10071047  RH  074%=      5-min Rain = 0
KFL1 140439Z 04007KT M01/M05 A3032 RMK A01 T10081047  RH  075%=      5-min Rain = 0
KFL1 140440Z 04008KT M01/M05 A3032 RMK A01 T10081048  RH  075%=      5-min Rain = 0
KFL1 140441Z 04007KT M01/M05 A3032 RMK A01 T10091048  RH  075%=      5-min Rain = 0
KFL1 140442Z 04008KT M01/M05 A3032 RMK A01 T10081047  RH  075%=      5-min Rain = 0
KFL1 140443Z 04008KT M01/M05 A3032 RMK A01 T10081047  RH  075%=      5-min Rain = 0
KFL1 140444Z 04009KT M01/M05 A3032 RMK A01 T10081047  RH  075%=      5-min Rain = 0
KFL1 140445Z 04009KT M01/M05 A3032 RMK A01 T10091048  RH  075%=      5-min Rain = 0
KFL1 140446Z 04010KT M01/M05 A3032 RMK A01 T10091048  RH  075%=      5-min Rain = 0
KFL1 140447Z 04010KT M01/M05 A3032 RMK A01 T10101048  RH  075%=      5-min Rain = 0
KFL1 140448Z 04009KT M01/M05 A3032 RMK A01 T10101048  RH  075%=      5-min Rain = 0
KFL1 140449Z 04010KT M01/M05 A3032 RMK A01 T10101048  RH  075%=      5-min Rain = 0
KFL1 140450Z 04009KT M01/M05 A3032 RMK A01 T10101048  RH  075%=      5-min Rain = 0
KFL1 140451Z 04009KT M01/M05 A3032 RMK A01 T10071046  RH  075%=      5-min Rain = 0
KFL1 140452Z 04009KT M01/M05 A3032 RMK A01 T10081048  RH  075%=      5-min Rain = 0
KFL1 140453Z 03009KT M01/M05 A3032 RMK A01 T10081048  RH  074%=      5-min Rain = 0
KFL1 140454Z 03007KT M01/M05 A3032 RMK A01 T10061046  RH  074%=      5-min Rain = 0
KFL1 140455Z 04007KT M01/M05 A3032 RMK A01 T10061048  RH  073%=      5-min Rain = 0
KFL1 140456Z 03008KT M01/M05 A3032 RMK A01 T10051047  RH  073%=      5-min Rain = 0
KFL1 140457Z 03008KT M01/M05 A3032 RMK A01 T10061048  RH  073%=      5-min Rain = 0
KFL1 140458Z 03007KT M01/M05 A3032 RMK A01 T10061048  RH  073%=      5-min Rain = 0
KFL1 140459Z 03007KT M00/M05 A3032 RMK A01 T10041046  RH  073%=      5-min Rain = 0
KFL1 140500Z 03007KT M00/M05 A3032 RMK A01 T10041047  RH  073%=      5-min Rain = 0
KFL1 140501Z 03008KT M00/M05 A3032 RMK A01 T10041047  RH  073%=      5-min Rain = 0
KFL1 140502Z 03007KT M00/M05 A3032 RMK A01 T10031047  RH  072%=      5-min Rain = 0
KFL1 140503Z 03007KT M00/M05 A3032 RMK A01 T10041048  RH  072%=      5-min Rain = 0
KFL1 140504Z 03006KT M00/M05 A3032 RMK A01 T10041047  RH  072%=      5-min Rain = 0
KFL1 140505Z 04006KT M01/M05 A3032 RMK A01 T10051049  RH  072%=      5-min Rain = 0
KFL1 140506Z 04006KT M01/M05 A3032 RMK A01 T10051049  RH  072%=      5-min Rain = 0
KFL1 140507Z 04007KT M01/M05 A3032 RMK A01 T10071050  RH  073%=      5-min Rain = 0
KFL1 140508Z 03007KT M01/M05 A3032 RMK A01 T10071049  RH  073%=      5-min Rain = 0
KFL1 140509Z 03007KT M01/M05 A3032 RMK A01 T10091051  RH  073%=      5-min Rain = 0
KFL1 140510Z 03008KT M01/M05 A3032 RMK A01 T10091051  RH  073%=      5-min Rain = 0
KFL1 140511Z 03008KT M01/M05 A3032 RMK A01 T10081050  RH  074%=      5-min Rain = 0
KFL1 140512Z 04008KT M01/M05 A3032 RMK A01 T10081050  RH  074%=      5-min Rain = 0
KFL1 140513Z 04008KT M01/M05 A3032 RMK A01 T10081049  RH  073%=      5-min Rain = 0
KFL1 140514Z 04008KT M01/M05 A3032 RMK A01 T10081050  RH  073%=      5-min Rain = 0
KFL1 140515Z 04008KT M01/M05 A3032 RMK A01 T10101051  RH  073%=      5-min Rain = 0
KFL1 140516Z 04008KT M01/M05 A3032 RMK A01 T10101051  RH  074%=      5-min Rain = 0
KFL1 140517Z 04008KT M01/M05 A3032 RMK A01 T10101051  RH  074%=      5-min Rain = 0
KFL1 140518Z 04007KT M01/M05 A3032 RMK A01 T10071048  RH  074%=      5-min Rain = 0
KFL1 140519Z 04007KT M01/M05 A3032 RMK A01 T10071048  RH  073%=      5-min Rain = 0
KFL1 140520Z 04006KT M01/M05 A3032 RMK A01 T10071049  RH  073%=      5-min Rain = 0
KFL1 140521Z 04006KT M01/M05 A3032 RMK A01 T10081050  RH  073%=      5-min Rain = 0
KFL1 140522Z 03006KT M01/M05 A3032 RMK A01 T10091051  RH  073%=      5-min Rain = 0
KFL1 140523Z 03005KT M01/M05 A3032 RMK A01 T10091050  RH  073%=      5-min Rain = 0
KFL1 140524Z 03006KT M01/M05 A3032 RMK A01 T10081049  RH  073%=      5-min Rain = 0
KFL1 140525Z 02007KT M01/M05 A3032 RMK A01 T10091051  RH  073%=      5-min Rain = 0
KFL1 140526Z 03005KT M01/M05 A3032 RMK A01 T10081050  RH  073%=      5-min Rain = 0
KFL1 140527Z 02004KT M01/M05 A3033 RMK A01 T10091051  RH  073%=      5-min Rain = 0
KFL1 140528Z 02005KT M01/M05 A3033 RMK A01 T10071050  RH  073%=      5-min Rain = 0
KFL1 140529Z 03006KT M01/M05 A3033 RMK A01 T10081051  RH  073%=      5-min Rain = 0
KFL1 140530Z 04005KT M01/M05 A3033 RMK A01 T10081051  RH  073%=      5-min Rain = 0
KFL1 140531Z 03006KT M01/M05 A3033 RMK A01 T10081051  RH  073%=      5-min Rain = 0
KFL1 140532Z 04007KT M01/M05 A3033 RMK A01 T10081051  RH  073%=      5-min Rain = 0
KFL1 140533Z 03007KT M01/M05 A3033 RMK A01 T10081050  RH  073%=      5-min Rain = 0
KFL1 140534Z 04007KT M01/M05 A3033 RMK A01 T10081050  RH  073%=      5-min Rain = 0
KFL1 140535Z 04006KT M01/M05 A3033 RMK A01 T10081051  RH  073%=      5-min Rain = 0
KFL1 140536Z 03006KT M01/M05 A3033 RMK A01 T10081050  RH  073%=      5-min Rain = 0
KFL1 140537Z 04007KT M01/M05 A3033 RMK A01 T10081051  RH  073%=      5-min Rain = 0
KFL1 140538Z 03008KT M01/M05 A3033 RMK A01 T10071050  RH  073%=      5-min Rain = 0
KFL1 140539Z 03008KT M01/M05 A3033 RMK A01 T10061049  RH  073%=      5-min Rain = 0
KFL1 140540Z 03008KT M01/M05 A3033 RMK A01 T10061050  RH  072%=      5-min Rain = 0
KFL1 140541Z 03008KT M01/M05 A3032 RMK A01 T10051049  RH  072%=      5-min Rain = 0
KFL1 140542Z 03008KT M01/M05 A3032 RMK A01 T10051050  RH  072%=      5-min Rain = 0
KFL1 140543Z 04008KT M00/M05 A3032 RMK A01 T10031048  RH  071%=      5-min Rain = 0
KFL1 140544Z 04007KT M00/M05 A3033 RMK A01 T10041050  RH  071%=      5-min Rain = 0
KFL1 140545Z 04007KT M00/M05 A3033 RMK A01 T10041050  RH  071%=      5-min Rain = 0
KFL1 140546Z 04007KT M01/M05 A3032 RMK A01 T10051050  RH  071%=      5-min Rain = 0
KFL1 140547Z 04008KT M01/M05 A3032 RMK A01 T10051051  RH  071%=      5-min Rain = 0
KFL1 140548Z 04008KT M01/M05 A3032 RMK A01 T10051050  RH  072%=      5-min Rain = 0
KFL1 140549Z 04008KT M00/M05 A3032 RMK A01 T10041049  RH  072%=      5-min Rain = 0
KFL1 140550Z 04008KT M01/M05 A3032 RMK A01 T10051049  RH  072%=      5-min Rain = 0
KFL1 140551Z 04007KT M01/M05 A3032 RMK A01 T10071051  RH  072%=      5-min Rain = 0
KFL1 140552Z 04007KT M01/M05 A3032 RMK A01 T10071051  RH  072%=      5-min Rain = 0
KFL1 140553Z 03007KT M01/M05 A3032 RMK A01 T10071051  RH  072%=      5-min Rain = 0
KFL1 140554Z 04006KT M01/M05 A3033 RMK A01 T10061049  RH  072%=      5-min Rain = 0
KFL1 140555Z 04007KT M01/M05 A3033 RMK A01 T10071051  RH  073%=      5-min Rain = 0
KFL1 140556Z 04007KT M01/M05 A3033 RMK A01 T10071051  RH  073%=      5-min Rain = 0
KFL1 140557Z 04007KT M01/M05 A3032 RMK A01 T10061049  RH  073%=      5-min Rain = 0
KFL1 140558Z 04007KT M01/M05 A3033 RMK A01 T10071050  RH  073%=      5-min Rain = 0
KFL1 140559Z 04008KT M01/M05 A3033 RMK A01 T10081051  RH  073%=      5-min Rain = 0

Page generated in 0.1399 seconds.